<?xml version="1.0" encoding="UTF-8" standalone="no" ?>
<gpx xmlns="http://www.topografix.com/GPX/1/1" xmlns:xsi="http://www.w3.org/2001/XMLSchema-instance" xsi:schemaLocation="http://www.topografix.com/GPX/1/1 http://www.topografix.com/GPX/1/1/gpx.xsd" version="1.1" creator="VisuGPX - https://www.visugpx.com">
  <metadata>
    <name>Randonnée du 11-03-2017- Clermont le Fort </name>
    <desc><![CDATA[Randonnée du 11-03-2017-boucle Clermont le Fort (31): Venerque: Clermont le Fort]]></desc>
  </metadata>
  <trk>
    <name><![CDATA[Clermont le fort Rando]]></name>
    <desc><![CDATA[11 mars 2017  9:30 am]]></desc>
    <trkseg>
      <trkpt lat="43.45574" lon="1.43448">
        <ele>155.215</ele>
        <time>2017-03-11T08:30:10.873Z</time>
      </trkpt>
      <trkpt lat="43.45574" lon="1.43448">
        <ele>155.202</ele>
        <time>2017-03-11T08:30:10.973Z</time>
      </trkpt>
      <trkpt lat="43.45568" lon="1.43444">
        <ele>155.097</ele>
        <time>2017-03-11T08:30:41.122Z</time>
      </trkpt>
      <trkpt lat="43.4556" lon="1.43435">
        <ele>156.91</ele>
        <time>2017-03-11T08:30:52.763Z</time>
      </trkpt>
      <trkpt lat="43.45552" lon="1.43429">
        <ele>161.743</ele>
        <time>2017-03-11T08:30:59.457Z</time>
      </trkpt>
      <trkpt lat="43.45543" lon="1.43424">
        <ele>166.595</ele>
        <time>2017-03-11T08:31:06.000Z</time>
      </trkpt>
      <trkpt lat="43.45543" lon="1.43424">
        <ele>168.467</ele>
        <time>2017-03-11T08:31:09.000Z</time>
      </trkpt>
      <trkpt lat="43.45543" lon="1.43424">
        <ele>168.063</ele>
        <time>2017-03-11T08:31:09.100Z</time>
      </trkpt>
      <trkpt lat="43.45535" lon="1.43416">
        <ele>167.063</ele>
        <time>2017-03-11T08:31:25.537Z</time>
      </trkpt>
      <trkpt lat="43.45525" lon="1.43412">
        <ele>166.246</ele>
        <time>2017-03-11T08:31:33.016Z</time>
      </trkpt>
      <trkpt lat="43.45517" lon="1.43406">
        <ele>165.552</ele>
        <time>2017-03-11T08:31:38.990Z</time>
      </trkpt>
      <trkpt lat="43.45509" lon="1.434">
        <ele>164.975</ele>
        <time>2017-03-11T08:31:44.878Z</time>
      </trkpt>
      <trkpt lat="43.45503" lon="1.43391">
        <ele>164.523</ele>
        <time>2017-03-11T08:31:52.024Z</time>
      </trkpt>
      <trkpt lat="43.45492" lon="1.43392">
        <ele>164.071</ele>
        <time>2017-03-11T08:32:02.331Z</time>
      </trkpt>
      <trkpt lat="43.45482" lon="1.4339">
        <ele>163.445</ele>
        <time>2017-03-11T08:32:13.074Z</time>
      </trkpt>
      <trkpt lat="43.45474" lon="1.43384">
        <ele>162.551</ele>
        <time>2017-03-11T08:32:23.296Z</time>
      </trkpt>
      <trkpt lat="43.45464" lon="1.43382">
        <ele>161.608</ele>
        <time>2017-03-11T08:32:33.870Z</time>
      </trkpt>
      <trkpt lat="43.45459" lon="1.43371">
        <ele>160.858</ele>
        <time>2017-03-11T08:32:42.321Z</time>
      </trkpt>
      <trkpt lat="43.45452" lon="1.43362">
        <ele>160.335</ele>
        <time>2017-03-11T08:32:50.454Z</time>
      </trkpt>
      <trkpt lat="43.45446" lon="1.43352">
        <ele>160.062</ele>
        <time>2017-03-11T08:32:58.721Z</time>
      </trkpt>
      <trkpt lat="43.4544" lon="1.43342">
        <ele>159.964</ele>
        <time>2017-03-11T08:33:07.333Z</time>
      </trkpt>
      <trkpt lat="43.45431" lon="1.43337">
        <ele>159.833</ele>
        <time>2017-03-11T08:33:16.702Z</time>
      </trkpt>
      <trkpt lat="43.45422" lon="1.43334">
        <ele>159.533</ele>
        <time>2017-03-11T08:33:26.119Z</time>
      </trkpt>
      <trkpt lat="43.45413" lon="1.43327">
        <ele>159</ele>
        <time>2017-03-11T08:33:34.171Z</time>
      </trkpt>
      <trkpt lat="43.45405" lon="1.43323">
        <ele>158.26</ele>
        <time>2017-03-11T08:33:40.788Z</time>
      </trkpt>
      <trkpt lat="43.45396" lon="1.43319">
        <ele>157.482</ele>
        <time>2017-03-11T08:33:47.674Z</time>
      </trkpt>
      <trkpt lat="43.45388" lon="1.43311">
        <ele>156.854</ele>
        <time>2017-03-11T08:33:55.421Z</time>
      </trkpt>
      <trkpt lat="43.45379" lon="1.43305">
        <ele>156.468</ele>
        <time>2017-03-11T08:34:03.486Z</time>
      </trkpt>
      <trkpt lat="43.4537" lon="1.433">
        <ele>156.336</ele>
        <time>2017-03-11T08:34:12.145Z</time>
      </trkpt>
      <trkpt lat="43.4536" lon="1.43296">
        <ele>156.428</ele>
        <time>2017-03-11T08:34:20.979Z</time>
      </trkpt>
      <trkpt lat="43.4535" lon="1.43293">
        <ele>156.657</ele>
        <time>2017-03-11T08:34:28.556Z</time>
      </trkpt>
      <trkpt lat="43.45344" lon="1.43282">
        <ele>156.877</ele>
        <time>2017-03-11T08:34:35.129Z</time>
      </trkpt>
      <trkpt lat="43.45335" lon="1.43276">
        <ele>156.989</ele>
        <time>2017-03-11T08:34:42.440Z</time>
      </trkpt>
      <trkpt lat="43.45327" lon="1.43267">
        <ele>157.016</ele>
        <time>2017-03-11T08:34:50.420Z</time>
      </trkpt>
      <trkpt lat="43.45321" lon="1.43257">
        <ele>157.033</ele>
        <time>2017-03-11T08:34:57.928Z</time>
      </trkpt>
      <trkpt lat="43.45317" lon="1.43245">
        <ele>157.076</ele>
        <time>2017-03-11T08:35:06.734Z</time>
      </trkpt>
      <trkpt lat="43.45315" lon="1.43232">
        <ele>157.16</ele>
        <time>2017-03-11T08:35:16.674Z</time>
      </trkpt>
      <trkpt lat="43.45307" lon="1.43223">
        <ele>157.309</ele>
        <time>2017-03-11T08:35:24.987Z</time>
      </trkpt>
      <trkpt lat="43.45301" lon="1.43213">
        <ele>157.487</ele>
        <time>2017-03-11T08:35:32.011Z</time>
      </trkpt>
      <trkpt lat="43.45292" lon="1.43205">
        <ele>157.629</ele>
        <time>2017-03-11T08:35:41.810Z</time>
      </trkpt>
      <trkpt lat="43.45286" lon="1.43193">
        <ele>157.722</ele>
        <time>2017-03-11T08:35:52.792Z</time>
      </trkpt>
      <trkpt lat="43.45279" lon="1.43183">
        <ele>157.769</ele>
        <time>2017-03-11T08:36:02.638Z</time>
      </trkpt>
      <trkpt lat="43.45271" lon="1.43174">
        <ele>157.778</ele>
        <time>2017-03-11T08:36:10.876Z</time>
      </trkpt>
      <trkpt lat="43.45265" lon="1.43164">
        <ele>157.773</ele>
        <time>2017-03-11T08:36:16.789Z</time>
      </trkpt>
      <trkpt lat="43.45257" lon="1.43154">
        <ele>157.784</ele>
        <time>2017-03-11T08:36:22.773Z</time>
      </trkpt>
      <trkpt lat="43.45251" lon="1.43143">
        <ele>157.806</ele>
        <time>2017-03-11T08:36:28.180Z</time>
      </trkpt>
      <trkpt lat="43.45242" lon="1.43136">
        <ele>157.831</ele>
        <time>2017-03-11T08:36:33.874Z</time>
      </trkpt>
      <trkpt lat="43.45237" lon="1.43126">
        <ele>157.874</ele>
        <time>2017-03-11T08:36:40.918Z</time>
      </trkpt>
      <trkpt lat="43.4523" lon="1.43116">
        <ele>157.949</ele>
        <time>2017-03-11T08:36:49.501Z</time>
      </trkpt>
      <trkpt lat="43.45228" lon="1.43103">
        <ele>158.053</ele>
        <time>2017-03-11T08:36:59.346Z</time>
      </trkpt>
      <trkpt lat="43.45222" lon="1.43092">
        <ele>158.161</ele>
        <time>2017-03-11T08:37:07.878Z</time>
      </trkpt>
      <trkpt lat="43.45216" lon="1.43081">
        <ele>158.236</ele>
        <time>2017-03-11T08:37:15.718Z</time>
      </trkpt>
      <trkpt lat="43.45214" lon="1.43069">
        <ele>158.1</ele>
        <time>2017-03-11T08:37:23.593Z</time>
      </trkpt>
      <trkpt lat="43.45213" lon="1.43056">
        <ele>157.603</ele>
        <time>2017-03-11T08:37:34.055Z</time>
      </trkpt>
      <trkpt lat="43.4521" lon="1.43044">
        <ele>156.802</ele>
        <time>2017-03-11T08:37:44.891Z</time>
      </trkpt>
      <trkpt lat="43.45206" lon="1.43031">
        <ele>155.931</ele>
        <time>2017-03-11T08:37:53.938Z</time>
      </trkpt>
      <trkpt lat="43.45202" lon="1.43019">
        <ele>155.301</ele>
        <time>2017-03-11T08:38:01.030Z</time>
      </trkpt>
      <trkpt lat="43.45201" lon="1.43007">
        <ele>155.055</ele>
        <time>2017-03-11T08:38:08.111Z</time>
      </trkpt>
      <trkpt lat="43.45195" lon="1.42996">
        <ele>155.089</ele>
        <time>2017-03-11T08:38:15.951Z</time>
      </trkpt>
      <trkpt lat="43.4519" lon="1.42985">
        <ele>155.277</ele>
        <time>2017-03-11T08:38:25.231Z</time>
      </trkpt>
      <trkpt lat="43.45188" lon="1.42972">
        <ele>155.361</ele>
        <time>2017-03-11T08:38:35.338Z</time>
      </trkpt>
      <trkpt lat="43.45188" lon="1.42958">
        <ele>155.119</ele>
        <time>2017-03-11T08:38:45.219Z</time>
      </trkpt>
      <trkpt lat="43.45185" lon="1.42945">
        <ele>154.655</ele>
        <time>2017-03-11T08:38:54.600Z</time>
      </trkpt>
      <trkpt lat="43.4518" lon="1.42933">
        <ele>154.215</ele>
        <time>2017-03-11T08:39:02.000Z</time>
      </trkpt>
      <trkpt lat="43.4518" lon="1.42933">
        <ele>153.922</ele>
        <time>2017-03-11T08:39:05.000Z</time>
      </trkpt>
      <trkpt lat="43.4518" lon="1.42933">
        <ele>153.778</ele>
        <time>2017-03-11T08:39:05.100Z</time>
      </trkpt>
      <trkpt lat="43.45177" lon="1.42915">
        <ele>153.731</ele>
        <time>2017-03-11T08:39:20.932Z</time>
      </trkpt>
      <trkpt lat="43.45172" lon="1.42904">
        <ele>153.694</ele>
        <time>2017-03-11T08:39:30.165Z</time>
      </trkpt>
      <trkpt lat="43.4517" lon="1.42891">
        <ele>153.622</ele>
        <time>2017-03-11T08:39:40.823Z</time>
      </trkpt>
      <trkpt lat="43.45165" lon="1.42879">
        <ele>153.566</ele>
        <time>2017-03-11T08:39:51.159Z</time>
      </trkpt>
      <trkpt lat="43.45165" lon="1.42866">
        <ele>153.595</ele>
        <time>2017-03-11T08:40:00.214Z</time>
      </trkpt>
      <trkpt lat="43.4516" lon="1.42855">
        <ele>153.711</ele>
        <time>2017-03-11T08:40:08.687Z</time>
      </trkpt>
      <trkpt lat="43.45152" lon="1.42848">
        <ele>153.929</ele>
        <time>2017-03-11T08:40:17.335Z</time>
      </trkpt>
      <trkpt lat="43.45147" lon="1.42836">
        <ele>154.299</ele>
        <time>2017-03-11T08:40:26.464Z</time>
      </trkpt>
      <trkpt lat="43.45138" lon="1.42824">
        <ele>154.743</ele>
        <time>2017-03-11T08:40:37.442Z</time>
      </trkpt>
      <trkpt lat="43.4513" lon="1.42819">
        <ele>155.038</ele>
        <time>2017-03-11T08:40:44.947Z</time>
      </trkpt>
      <trkpt lat="43.45121" lon="1.42812">
        <ele>155.099</ele>
        <time>2017-03-11T08:40:51.967Z</time>
      </trkpt>
      <trkpt lat="43.45116" lon="1.42801">
        <ele>155.05</ele>
        <time>2017-03-11T08:40:58.110Z</time>
      </trkpt>
      <trkpt lat="43.4511" lon="1.42791">
        <ele>155.026</ele>
        <time>2017-03-11T08:41:04.515Z</time>
      </trkpt>
      <trkpt lat="43.45101" lon="1.42785">
        <ele>155.057</ele>
        <time>2017-03-11T08:41:12.062Z</time>
      </trkpt>
      <trkpt lat="43.45092" lon="1.42781">
        <ele>155.097</ele>
        <time>2017-03-11T08:41:19.614Z</time>
      </trkpt>
      <trkpt lat="43.45084" lon="1.42775">
        <ele>155.088</ele>
        <time>2017-03-11T08:41:27.651Z</time>
      </trkpt>
      <trkpt lat="43.45078" lon="1.42764">
        <ele>155.021</ele>
        <time>2017-03-11T08:41:36.000Z</time>
      </trkpt>
      <trkpt lat="43.45078" lon="1.42764">
        <ele>154.949</ele>
        <time>2017-03-11T08:41:40.000Z</time>
      </trkpt>
      <trkpt lat="43.45078" lon="1.42764">
        <ele>154.902</ele>
        <time>2017-03-11T08:41:41.219Z</time>
      </trkpt>
      <trkpt lat="43.45078" lon="1.42764">
        <ele>154.809</ele>
        <time>2017-03-11T08:42:01.000Z</time>
      </trkpt>
      <trkpt lat="43.45078" lon="1.42764">
        <ele>154.762</ele>
        <time>2017-03-11T08:42:01.100Z</time>
      </trkpt>
      <trkpt lat="43.45072" lon="1.42748">
        <ele>154.717</ele>
        <time>2017-03-11T08:42:20.851Z</time>
      </trkpt>
      <trkpt lat="43.45062" lon="1.42744">
        <ele>154.771</ele>
        <time>2017-03-11T08:42:30.742Z</time>
      </trkpt>
      <trkpt lat="43.45052" lon="1.42741">
        <ele>154.984</ele>
        <time>2017-03-11T08:42:39.502Z</time>
      </trkpt>
      <trkpt lat="43.45044" lon="1.42734">
        <ele>155.152</ele>
        <time>2017-03-11T08:42:47.377Z</time>
      </trkpt>
      <trkpt lat="43.45036" lon="1.42728">
        <ele>155.072</ele>
        <time>2017-03-11T08:42:55.630Z</time>
      </trkpt>
      <trkpt lat="43.45027" lon="1.42723">
        <ele>154.8</ele>
        <time>2017-03-11T08:43:04.604Z</time>
      </trkpt>
      <trkpt lat="43.45019" lon="1.42715">
        <ele>154.505</ele>
        <time>2017-03-11T08:43:12.984Z</time>
      </trkpt>
      <trkpt lat="43.45011" lon="1.42707">
        <ele>154.319</ele>
        <time>2017-03-11T08:43:19.904Z</time>
      </trkpt>
      <trkpt lat="43.45002" lon="1.427">
        <ele>154.287</ele>
        <time>2017-03-11T08:43:27.556Z</time>
      </trkpt>
      <trkpt lat="43.44994" lon="1.42693">
        <ele>154.405</ele>
        <time>2017-03-11T08:43:34.981Z</time>
      </trkpt>
      <trkpt lat="43.44985" lon="1.42689">
        <ele>154.672</ele>
        <time>2017-03-11T08:43:42.872Z</time>
      </trkpt>
      <trkpt lat="43.44976" lon="1.42683">
        <ele>155.007</ele>
        <time>2017-03-11T08:43:52.298Z</time>
      </trkpt>
      <trkpt lat="43.44966" lon="1.42679">
        <ele>155.328</ele>
        <time>2017-03-11T08:44:01.797Z</time>
      </trkpt>
      <trkpt lat="43.44958" lon="1.42672">
        <ele>155.647</ele>
        <time>2017-03-11T08:44:12.543Z</time>
      </trkpt>
      <trkpt lat="43.44949" lon="1.42666">
        <ele>155.978</ele>
        <time>2017-03-11T08:44:22.779Z</time>
      </trkpt>
      <trkpt lat="43.4494" lon="1.42664">
        <ele>156.273</ele>
        <time>2017-03-11T08:44:32.619Z</time>
      </trkpt>
      <trkpt lat="43.44931" lon="1.4266">
        <ele>156.505</ele>
        <time>2017-03-11T08:44:40.092Z</time>
      </trkpt>
      <trkpt lat="43.44921" lon="1.42657">
        <ele>156.66</ele>
        <time>2017-03-11T08:44:46.771Z</time>
      </trkpt>
      <trkpt lat="43.4491" lon="1.42658">
        <ele>156.694</ele>
        <time>2017-03-11T08:44:53.492Z</time>
      </trkpt>
      <trkpt lat="43.44901" lon="1.42653">
        <ele>156.601</ele>
        <time>2017-03-11T08:44:59.955Z</time>
      </trkpt>
      <trkpt lat="43.4489" lon="1.42647">
        <ele>156.486</ele>
        <time>2017-03-11T08:45:10.035Z</time>
      </trkpt>
      <trkpt lat="43.4488" lon="1.4265">
        <ele>156.439</ele>
        <time>2017-03-11T08:45:20.204Z</time>
      </trkpt>
      <trkpt lat="43.4487" lon="1.42653">
        <ele>156.482</ele>
        <time>2017-03-11T08:45:30.210Z</time>
      </trkpt>
      <trkpt lat="43.4486" lon="1.42652">
        <ele>156.667</ele>
        <time>2017-03-11T08:45:38.558Z</time>
      </trkpt>
      <trkpt lat="43.44851" lon="1.42653">
        <ele>156.986</ele>
        <time>2017-03-11T08:45:47.070Z</time>
      </trkpt>
      <trkpt lat="43.44841" lon="1.42652">
        <ele>157.304</ele>
        <time>2017-03-11T08:45:57.658Z</time>
      </trkpt>
      <trkpt lat="43.44832" lon="1.42652">
        <ele>157.543</ele>
        <time>2017-03-11T08:46:06.166Z</time>
      </trkpt>
      <trkpt lat="43.44822" lon="1.42654">
        <ele>157.717</ele>
        <time>2017-03-11T08:46:13.541Z</time>
      </trkpt>
      <trkpt lat="43.44811" lon="1.42656">
        <ele>157.819</ele>
        <time>2017-03-11T08:46:21.191Z</time>
      </trkpt>
      <trkpt lat="43.44801" lon="1.42659">
        <ele>157.851</ele>
        <time>2017-03-11T08:46:28.053Z</time>
      </trkpt>
      <trkpt lat="43.44792" lon="1.42664">
        <ele>157.913</ele>
        <time>2017-03-11T08:46:34.659Z</time>
      </trkpt>
      <trkpt lat="43.44783" lon="1.42668">
        <ele>158.09</ele>
        <time>2017-03-11T08:46:41.585Z</time>
      </trkpt>
      <trkpt lat="43.44775" lon="1.42676">
        <ele>158.31</ele>
        <time>2017-03-11T08:46:47.787Z</time>
      </trkpt>
      <trkpt lat="43.44766" lon="1.42683">
        <ele>158.451</ele>
        <time>2017-03-11T08:46:55.302Z</time>
      </trkpt>
      <trkpt lat="43.44759" lon="1.42691">
        <ele>158.496</ele>
        <time>2017-03-11T08:47:03.562Z</time>
      </trkpt>
      <trkpt lat="43.44754" lon="1.42703">
        <ele>158.503</ele>
        <time>2017-03-11T08:47:12.175Z</time>
      </trkpt>
      <trkpt lat="43.44746" lon="1.4271">
        <ele>158.59</ele>
        <time>2017-03-11T08:47:19.770Z</time>
      </trkpt>
      <trkpt lat="43.44739" lon="1.4272">
        <ele>158.821</ele>
        <time>2017-03-11T08:47:27.317Z</time>
      </trkpt>
      <trkpt lat="43.44733" lon="1.42732">
        <ele>159.102</ele>
        <time>2017-03-11T08:47:34.124Z</time>
      </trkpt>
      <trkpt lat="43.44726" lon="1.42739">
        <ele>159.371</ele>
        <time>2017-03-11T08:47:40.069Z</time>
      </trkpt>
      <trkpt lat="43.44715" lon="1.42747">
        <ele>159.655</ele>
        <time>2017-03-11T08:47:51.105Z</time>
      </trkpt>
      <trkpt lat="43.4471" lon="1.42759">
        <ele>159.96</ele>
        <time>2017-03-11T08:48:00.257Z</time>
      </trkpt>
      <trkpt lat="43.44703" lon="1.42768">
        <ele>160.248</ele>
        <time>2017-03-11T08:48:13.607Z</time>
      </trkpt>
      <trkpt lat="43.44695" lon="1.42779">
        <ele>160.391</ele>
        <time>2017-03-11T08:48:26.819Z</time>
      </trkpt>
      <trkpt lat="43.44691" lon="1.42792">
        <ele>160.323</ele>
        <time>2017-03-11T08:48:38.343Z</time>
      </trkpt>
      <trkpt lat="43.44685" lon="1.42808">
        <ele>160.173</ele>
        <time>2017-03-11T08:48:56.074Z</time>
      </trkpt>
      <trkpt lat="43.44679" lon="1.42818">
        <ele>159.997</ele>
        <time>2017-03-11T08:49:09.220Z</time>
      </trkpt>
      <trkpt lat="43.44672" lon="1.42826">
        <ele>159.751</ele>
        <time>2017-03-11T08:49:20.517Z</time>
      </trkpt>
      <trkpt lat="43.44664" lon="1.42833">
        <ele>159.527</ele>
        <time>2017-03-11T08:49:31.213Z</time>
      </trkpt>
      <trkpt lat="43.44656" lon="1.4284">
        <ele>159.498</ele>
        <time>2017-03-11T08:49:40.129Z</time>
      </trkpt>
      <trkpt lat="43.4465" lon="1.4285">
        <ele>159.664</ele>
        <time>2017-03-11T08:49:47.127Z</time>
      </trkpt>
      <trkpt lat="43.44643" lon="1.42859">
        <ele>159.858</ele>
        <time>2017-03-11T08:49:52.858Z</time>
      </trkpt>
      <trkpt lat="43.44632" lon="1.42866">
        <ele>159.947</ele>
        <time>2017-03-11T08:50:03.112Z</time>
      </trkpt>
      <trkpt lat="43.44624" lon="1.42873">
        <ele>159.946</ele>
        <time>2017-03-11T08:50:11.762Z</time>
      </trkpt>
      <trkpt lat="43.44619" lon="1.42884">
        <ele>159.968</ele>
        <time>2017-03-11T08:50:20.900Z</time>
      </trkpt>
      <trkpt lat="43.44615" lon="1.42901">
        <ele>160.106</ele>
        <time>2017-03-11T08:50:29.857Z</time>
      </trkpt>
      <trkpt lat="43.44609" lon="1.42911">
        <ele>160.389</ele>
        <time>2017-03-11T08:50:36.134Z</time>
      </trkpt>
      <trkpt lat="43.44601" lon="1.42919">
        <ele>160.76</ele>
        <time>2017-03-11T08:50:44.252Z</time>
      </trkpt>
      <trkpt lat="43.44593" lon="1.42926">
        <ele>161.065</ele>
        <time>2017-03-11T08:50:52.538Z</time>
      </trkpt>
      <trkpt lat="43.44585" lon="1.42932">
        <ele>161.181</ele>
        <time>2017-03-11T08:50:59.234Z</time>
      </trkpt>
      <trkpt lat="43.44577" lon="1.42942">
        <ele>161.051</ele>
        <time>2017-03-11T08:51:09.509Z</time>
      </trkpt>
      <trkpt lat="43.4457" lon="1.42949">
        <ele>160.634</ele>
        <time>2017-03-11T08:51:18.805Z</time>
      </trkpt>
      <trkpt lat="43.44561" lon="1.42955">
        <ele>160.091</ele>
        <time>2017-03-11T08:51:27.018Z</time>
      </trkpt>
      <trkpt lat="43.44555" lon="1.42964">
        <ele>159.706</ele>
        <time>2017-03-11T08:51:34.368Z</time>
      </trkpt>
      <trkpt lat="43.44546" lon="1.42974">
        <ele>159.589</ele>
        <time>2017-03-11T08:51:45.383Z</time>
      </trkpt>
      <trkpt lat="43.44539" lon="1.42982">
        <ele>159.625</ele>
        <time>2017-03-11T08:51:56.630Z</time>
      </trkpt>
      <trkpt lat="43.44532" lon="1.42993">
        <ele>159.691</ele>
        <time>2017-03-11T08:52:09.807Z</time>
      </trkpt>
      <trkpt lat="43.44524" lon="1.42997">
        <ele>159.75</ele>
        <time>2017-03-11T08:52:21.055Z</time>
      </trkpt>
      <trkpt lat="43.4452" lon="1.43008">
        <ele>159.833</ele>
        <time>2017-03-11T08:52:32.082Z</time>
      </trkpt>
      <trkpt lat="43.4451" lon="1.4302">
        <ele>159.949</ele>
        <time>2017-03-11T08:52:45.178Z</time>
      </trkpt>
      <trkpt lat="43.445" lon="1.43027">
        <ele>160.06</ele>
        <time>2017-03-11T08:52:52.790Z</time>
      </trkpt>
      <trkpt lat="43.44493" lon="1.43035">
        <ele>160.097</ele>
        <time>2017-03-11T08:53:03.683Z</time>
      </trkpt>
      <trkpt lat="43.44486" lon="1.43042">
        <ele>160.034</ele>
        <time>2017-03-11T08:53:14.851Z</time>
      </trkpt>
      <trkpt lat="43.4448" lon="1.43054">
        <ele>159.917</ele>
        <time>2017-03-11T08:53:27.536Z</time>
      </trkpt>
      <trkpt lat="43.44473" lon="1.43063">
        <ele>159.814</ele>
        <time>2017-03-11T08:53:40.606Z</time>
      </trkpt>
      <trkpt lat="43.44466" lon="1.43073">
        <ele>159.726</ele>
        <time>2017-03-11T08:53:50.866Z</time>
      </trkpt>
      <trkpt lat="43.44461" lon="1.43084">
        <ele>159.635</ele>
        <time>2017-03-11T08:53:57.765Z</time>
      </trkpt>
      <trkpt lat="43.44457" lon="1.43099">
        <ele>159.623</ele>
        <time>2017-03-11T08:54:06.339Z</time>
      </trkpt>
      <trkpt lat="43.44452" lon="1.4311">
        <ele>159.752</ele>
        <time>2017-03-11T08:54:13.632Z</time>
      </trkpt>
      <trkpt lat="43.44448" lon="1.43124">
        <ele>159.938</ele>
        <time>2017-03-11T08:54:25.214Z</time>
      </trkpt>
      <trkpt lat="43.4444" lon="1.43131">
        <ele>160.097</ele>
        <time>2017-03-11T08:54:37.522Z</time>
      </trkpt>
      <trkpt lat="43.44431" lon="1.4314">
        <ele>160.223</ele>
        <time>2017-03-11T08:54:56.229Z</time>
      </trkpt>
      <trkpt lat="43.44422" lon="1.43149">
        <ele>160.311</ele>
        <time>2017-03-11T08:55:12.857Z</time>
      </trkpt>
      <trkpt lat="43.44413" lon="1.43154">
        <ele>160.358</ele>
        <time>2017-03-11T08:55:22.934Z</time>
      </trkpt>
      <trkpt lat="43.44405" lon="1.43159">
        <ele>160.386</ele>
        <time>2017-03-11T08:55:34.564Z</time>
      </trkpt>
      <trkpt lat="43.44397" lon="1.43167">
        <ele>160.433</ele>
        <time>2017-03-11T08:55:49.378Z</time>
      </trkpt>
      <trkpt lat="43.4439" lon="1.43176">
        <ele>160.515</ele>
        <time>2017-03-11T08:56:06.403Z</time>
      </trkpt>
      <trkpt lat="43.44382" lon="1.43182">
        <ele>160.608</ele>
        <time>2017-03-11T08:56:18.841Z</time>
      </trkpt>
      <trkpt lat="43.44375" lon="1.4319">
        <ele>160.698</ele>
        <time>2017-03-11T08:56:30.503Z</time>
      </trkpt>
      <trkpt lat="43.44368" lon="1.432">
        <ele>160.781</ele>
        <time>2017-03-11T08:56:39.725Z</time>
      </trkpt>
      <trkpt lat="43.44361" lon="1.43207">
        <ele>160.841</ele>
        <time>2017-03-11T08:56:46.179Z</time>
      </trkpt>
      <trkpt lat="43.44353" lon="1.43217">
        <ele>160.869</ele>
        <time>2017-03-11T08:56:53.544Z</time>
      </trkpt>
      <trkpt lat="43.44345" lon="1.43225">
        <ele>160.864</ele>
        <time>2017-03-11T08:57:00.878Z</time>
      </trkpt>
      <trkpt lat="43.44337" lon="1.43233">
        <ele>160.813</ele>
        <time>2017-03-11T08:57:07.443Z</time>
      </trkpt>
      <trkpt lat="43.44328" lon="1.43238">
        <ele>160.726</ele>
        <time>2017-03-11T08:57:15.293Z</time>
      </trkpt>
      <trkpt lat="43.44322" lon="1.43247">
        <ele>160.687</ele>
        <time>2017-03-11T08:57:25.699Z</time>
      </trkpt>
      <trkpt lat="43.44316" lon="1.43256">
        <ele>160.746</ele>
        <time>2017-03-11T08:57:36.579Z</time>
      </trkpt>
      <trkpt lat="43.4431" lon="1.43266">
        <ele>160.827</ele>
        <time>2017-03-11T08:57:46.889Z</time>
      </trkpt>
      <trkpt lat="43.44298" lon="1.43275">
        <ele>160.662</ele>
        <time>2017-03-11T08:58:04.958Z</time>
      </trkpt>
      <trkpt lat="43.4429" lon="1.43281">
        <ele>160.076</ele>
        <time>2017-03-11T08:58:15.729Z</time>
      </trkpt>
      <trkpt lat="43.44281" lon="1.43286">
        <ele>159.34</ele>
        <time>2017-03-11T08:58:23.291Z</time>
      </trkpt>
      <trkpt lat="43.44273" lon="1.43293">
        <ele>158.849</ele>
        <time>2017-03-11T08:58:30.181Z</time>
      </trkpt>
      <trkpt lat="43.44267" lon="1.43302">
        <ele>158.67</ele>
        <time>2017-03-11T08:58:37.671Z</time>
      </trkpt>
      <trkpt lat="43.44258" lon="1.4331">
        <ele>158.629</ele>
        <time>2017-03-11T08:58:46.619Z</time>
      </trkpt>
      <trkpt lat="43.4425" lon="1.43317">
        <ele>158.543</ele>
        <time>2017-03-11T08:58:53.748Z</time>
      </trkpt>
      <trkpt lat="43.44242" lon="1.43324">
        <ele>158.397</ele>
        <time>2017-03-11T08:59:00.929Z</time>
      </trkpt>
      <trkpt lat="43.44234" lon="1.43331">
        <ele>158.284</ele>
        <time>2017-03-11T08:59:09.261Z</time>
      </trkpt>
      <trkpt lat="43.44227" lon="1.4334">
        <ele>158.257</ele>
        <time>2017-03-11T08:59:18.472Z</time>
      </trkpt>
      <trkpt lat="43.44218" lon="1.43345">
        <ele>158.295</ele>
        <time>2017-03-11T08:59:28.175Z</time>
      </trkpt>
      <trkpt lat="43.4421" lon="1.43354">
        <ele>158.382</ele>
        <time>2017-03-11T08:59:36.639Z</time>
      </trkpt>
      <trkpt lat="43.44203" lon="1.43363">
        <ele>158.525</ele>
        <time>2017-03-11T08:59:44.153Z</time>
      </trkpt>
      <trkpt lat="43.44193" lon="1.43371">
        <ele>158.672</ele>
        <time>2017-03-11T08:59:54.389Z</time>
      </trkpt>
      <trkpt lat="43.44186" lon="1.43379">
        <ele>158.756</ele>
        <time>2017-03-11T09:00:02.911Z</time>
      </trkpt>
      <trkpt lat="43.4418" lon="1.43389">
        <ele>158.785</ele>
        <time>2017-03-11T09:00:10.551Z</time>
      </trkpt>
      <trkpt lat="43.44174" lon="1.434">
        <ele>158.828</ele>
        <time>2017-03-11T09:00:17.766Z</time>
      </trkpt>
      <trkpt lat="43.44167" lon="1.43407">
        <ele>158.925</ele>
        <time>2017-03-11T09:00:24.717Z</time>
      </trkpt>
      <trkpt lat="43.44159" lon="1.43415">
        <ele>159.032</ele>
        <time>2017-03-11T09:00:31.891Z</time>
      </trkpt>
      <trkpt lat="43.44152" lon="1.43423">
        <ele>159.13</ele>
        <time>2017-03-11T09:00:39.252Z</time>
      </trkpt>
      <trkpt lat="43.44147" lon="1.43434">
        <ele>159.239</ele>
        <time>2017-03-11T09:00:48.327Z</time>
      </trkpt>
      <trkpt lat="43.44148" lon="1.43447">
        <ele>159.339</ele>
        <time>2017-03-11T09:00:56.401Z</time>
      </trkpt>
      <trkpt lat="43.44152" lon="1.43458">
        <ele>159.433</ele>
        <time>2017-03-11T09:01:03.608Z</time>
      </trkpt>
      <trkpt lat="43.44152" lon="1.43472">
        <ele>159.586</ele>
        <time>2017-03-11T09:01:11.634Z</time>
      </trkpt>
      <trkpt lat="43.44153" lon="1.43485">
        <ele>159.852</ele>
        <time>2017-03-11T09:01:19.935Z</time>
      </trkpt>
      <trkpt lat="43.44159" lon="1.43497">
        <ele>160.238</ele>
        <time>2017-03-11T09:01:28.094Z</time>
      </trkpt>
      <trkpt lat="43.4416" lon="1.4351">
        <ele>160.7</ele>
        <time>2017-03-11T09:01:35.994Z</time>
      </trkpt>
      <trkpt lat="43.44161" lon="1.43523">
        <ele>161.143</ele>
        <time>2017-03-11T09:01:44.021Z</time>
      </trkpt>
      <trkpt lat="43.44163" lon="1.43535">
        <ele>161.451</ele>
        <time>2017-03-11T09:01:52.496Z</time>
      </trkpt>
      <trkpt lat="43.44166" lon="1.43549">
        <ele>161.581</ele>
        <time>2017-03-11T09:02:01.209Z</time>
      </trkpt>
      <trkpt lat="43.44166" lon="1.43561">
        <ele>161.635</ele>
        <time>2017-03-11T09:02:09.783Z</time>
      </trkpt>
      <trkpt lat="43.44168" lon="1.43576">
        <ele>161.736</ele>
        <time>2017-03-11T09:02:19.653Z</time>
      </trkpt>
      <trkpt lat="43.4417" lon="1.43588">
        <ele>161.891</ele>
        <time>2017-03-11T09:02:27.495Z</time>
      </trkpt>
      <trkpt lat="43.44171" lon="1.43601">
        <ele>162.129</ele>
        <time>2017-03-11T09:02:36.000Z</time>
      </trkpt>
      <trkpt lat="43.44171" lon="1.43601">
        <ele>162.455</ele>
        <time>2017-03-11T09:02:50.000Z</time>
      </trkpt>
      <trkpt lat="43.44158" lon="1.43707">
        <ele>170.899</ele>
        <time>2017-03-11T09:03:13.971Z</time>
      </trkpt>
      <trkpt lat="43.44158" lon="1.43708">
        <ele>172.422</ele>
        <time>2017-03-11T09:03:17.992Z</time>
      </trkpt>
      <trkpt lat="43.44154" lon="1.4372">
        <ele>173.444</ele>
        <time>2017-03-11T09:03:59.400Z</time>
      </trkpt>
      <trkpt lat="43.44155" lon="1.43733">
        <ele>174.067</ele>
        <time>2017-03-11T09:04:38.179Z</time>
      </trkpt>
      <trkpt lat="43.44152" lon="1.43745">
        <ele>174.833</ele>
        <time>2017-03-11T09:05:17.267Z</time>
      </trkpt>
      <trkpt lat="43.44148" lon="1.43758">
        <ele>176.121</ele>
        <time>2017-03-11T09:06:00.802Z</time>
      </trkpt>
      <trkpt lat="43.44141" lon="1.43749">
        <ele>177.639</ele>
        <time>2017-03-11T09:06:41.978Z</time>
      </trkpt>
      <trkpt lat="43.44143" lon="1.43736">
        <ele>179.185</ele>
        <time>2017-03-11T09:07:24.392Z</time>
      </trkpt>
      <trkpt lat="43.44144" lon="1.43723">
        <ele>180.868</ele>
        <time>2017-03-11T09:08:05.220Z</time>
      </trkpt>
      <trkpt lat="43.44135" lon="1.43719">
        <ele>182.539</ele>
        <time>2017-03-11T09:08:45.893Z</time>
      </trkpt>
      <trkpt lat="43.44126" lon="1.4372">
        <ele>184.361</ele>
        <time>2017-03-11T09:09:24.922Z</time>
      </trkpt>
      <trkpt lat="43.44117" lon="1.43724">
        <ele>186.81</ele>
        <time>2017-03-11T09:09:51.999Z</time>
      </trkpt>
      <trkpt lat="43.44107" lon="1.43729">
        <ele>189.704</ele>
        <time>2017-03-11T09:10:19.692Z</time>
      </trkpt>
      <trkpt lat="43.44099" lon="1.43738">
        <ele>192.318</ele>
        <time>2017-03-11T09:10:47.300Z</time>
      </trkpt>
      <trkpt lat="43.44091" lon="1.43742">
        <ele>194.255</ele>
        <time>2017-03-11T09:11:14.443Z</time>
      </trkpt>
      <trkpt lat="43.44085" lon="1.43751">
        <ele>195.77</ele>
        <time>2017-03-11T09:11:47.856Z</time>
      </trkpt>
      <trkpt lat="43.44077" lon="1.43759">
        <ele>197.632</ele>
        <time>2017-03-11T09:12:23.960Z</time>
      </trkpt>
      <trkpt lat="43.4407" lon="1.43768">
        <ele>200.171</ele>
        <time>2017-03-11T09:12:52.404Z</time>
      </trkpt>
      <trkpt lat="43.44065" lon="1.43778">
        <ele>203.366</ele>
        <time>2017-03-11T09:13:23.506Z</time>
      </trkpt>
      <trkpt lat="43.44056" lon="1.43784">
        <ele>207.009</ele>
        <time>2017-03-11T09:13:51.689Z</time>
      </trkpt>
      <trkpt lat="43.44047" lon="1.43785">
        <ele>210.315</ele>
        <time>2017-03-11T09:14:21.000Z</time>
      </trkpt>
      <trkpt lat="43.44047" lon="1.43785">
        <ele>212.392</ele>
        <time>2017-03-11T09:14:23.000Z</time>
      </trkpt>
      <trkpt lat="43.44047" lon="1.43785">
        <ele>213.101</ele>
        <time>2017-03-11T09:15:06.328Z</time>
      </trkpt>
      <trkpt lat="43.44037" lon="1.438">
        <ele>212.882</ele>
        <time>2017-03-11T09:15:29.476Z</time>
      </trkpt>
      <trkpt lat="43.44027" lon="1.4381">
        <ele>213.023</ele>
        <time>2017-03-11T09:15:46.545Z</time>
      </trkpt>
      <trkpt lat="43.44019" lon="1.43818">
        <ele>214.379</ele>
        <time>2017-03-11T09:15:54.118Z</time>
      </trkpt>
      <trkpt lat="43.44011" lon="1.43825">
        <ele>216.17</ele>
        <time>2017-03-11T09:16:01.246Z</time>
      </trkpt>
      <trkpt lat="43.44004" lon="1.43835">
        <ele>217.401</ele>
        <time>2017-03-11T09:16:08.230Z</time>
      </trkpt>
      <trkpt lat="43.43996" lon="1.43841">
        <ele>218.096</ele>
        <time>2017-03-11T09:16:15.608Z</time>
      </trkpt>
      <trkpt lat="43.43989" lon="1.43849">
        <ele>218.561</ele>
        <time>2017-03-11T09:16:23.388Z</time>
      </trkpt>
      <trkpt lat="43.43982" lon="1.43857">
        <ele>219.036</ele>
        <time>2017-03-11T09:16:30.579Z</time>
      </trkpt>
      <trkpt lat="43.43974" lon="1.43864">
        <ele>219.569</ele>
        <time>2017-03-11T09:16:37.032Z</time>
      </trkpt>
      <trkpt lat="43.43967" lon="1.43873">
        <ele>220.031</ele>
        <time>2017-03-11T09:16:43.711Z</time>
      </trkpt>
      <trkpt lat="43.43959" lon="1.4388">
        <ele>220.339</ele>
        <time>2017-03-11T09:16:49.970Z</time>
      </trkpt>
      <trkpt lat="43.43951" lon="1.43888">
        <ele>220.549</ele>
        <time>2017-03-11T09:16:56.593Z</time>
      </trkpt>
      <trkpt lat="43.43948" lon="1.439">
        <ele>220.761</ele>
        <time>2017-03-11T09:17:03.422Z</time>
      </trkpt>
      <trkpt lat="43.43942" lon="1.43911">
        <ele>221.248</ele>
        <time>2017-03-11T09:17:11.861Z</time>
      </trkpt>
      <trkpt lat="43.43938" lon="1.43923">
        <ele>222.197</ele>
        <time>2017-03-11T09:17:21.027Z</time>
      </trkpt>
      <trkpt lat="43.43932" lon="1.43933">
        <ele>223.417</ele>
        <time>2017-03-11T09:17:28.459Z</time>
      </trkpt>
      <trkpt lat="43.43922" lon="1.43932">
        <ele>224.502</ele>
        <time>2017-03-11T09:17:37.412Z</time>
      </trkpt>
      <trkpt lat="43.43915" lon="1.43925">
        <ele>225.12</ele>
        <time>2017-03-11T09:17:46.965Z</time>
      </trkpt>
      <trkpt lat="43.43906" lon="1.4392">
        <ele>224.845</ele>
        <time>2017-03-11T09:17:56.307Z</time>
      </trkpt>
      <trkpt lat="43.43896" lon="1.43924">
        <ele>223.561</ele>
        <time>2017-03-11T09:18:04.328Z</time>
      </trkpt>
      <trkpt lat="43.43887" lon="1.4393">
        <ele>221.944</ele>
        <time>2017-03-11T09:18:12.566Z</time>
      </trkpt>
      <trkpt lat="43.43879" lon="1.43935">
        <ele>220.854</ele>
        <time>2017-03-11T09:18:21.223Z</time>
      </trkpt>
      <trkpt lat="43.43869" lon="1.43932">
        <ele>220.491</ele>
        <time>2017-03-11T09:18:30.952Z</time>
      </trkpt>
      <trkpt lat="43.43859" lon="1.43934">
        <ele>220.623</ele>
        <time>2017-03-11T09:18:39.015Z</time>
      </trkpt>
      <trkpt lat="43.43849" lon="1.43938">
        <ele>221.011</ele>
        <time>2017-03-11T09:18:47.317Z</time>
      </trkpt>
      <trkpt lat="43.4384" lon="1.43942">
        <ele>221.603</ele>
        <time>2017-03-11T09:18:55.454Z</time>
      </trkpt>
      <trkpt lat="43.43831" lon="1.43947">
        <ele>222.415</ele>
        <time>2017-03-11T09:19:03.328Z</time>
      </trkpt>
      <trkpt lat="43.43823" lon="1.43953">
        <ele>223.425</ele>
        <time>2017-03-11T09:19:11.065Z</time>
      </trkpt>
      <trkpt lat="43.43813" lon="1.43957">
        <ele>224.446</ele>
        <time>2017-03-11T09:19:19.515Z</time>
      </trkpt>
      <trkpt lat="43.43804" lon="1.43963">
        <ele>225.152</ele>
        <time>2017-03-11T09:19:27.577Z</time>
      </trkpt>
      <trkpt lat="43.43796" lon="1.43967">
        <ele>225.426</ele>
        <time>2017-03-11T09:19:35.204Z</time>
      </trkpt>
      <trkpt lat="43.43788" lon="1.43974">
        <ele>225.408</ele>
        <time>2017-03-11T09:19:42.976Z</time>
      </trkpt>
      <trkpt lat="43.43779" lon="1.43978">
        <ele>225.273</ele>
        <time>2017-03-11T09:19:51.777Z</time>
      </trkpt>
      <trkpt lat="43.4377" lon="1.43985">
        <ele>225.012</ele>
        <time>2017-03-11T09:20:00.691Z</time>
      </trkpt>
      <trkpt lat="43.43761" lon="1.43989">
        <ele>224.574</ele>
        <time>2017-03-11T09:20:08.256Z</time>
      </trkpt>
      <trkpt lat="43.43752" lon="1.43992">
        <ele>224.143</ele>
        <time>2017-03-11T09:20:14.636Z</time>
      </trkpt>
      <trkpt lat="43.43742" lon="1.43997">
        <ele>223.934</ele>
        <time>2017-03-11T09:20:21.444Z</time>
      </trkpt>
      <trkpt lat="43.43734" lon="1.44002">
        <ele>223.943</ele>
        <time>2017-03-11T09:20:28.381Z</time>
      </trkpt>
      <trkpt lat="43.43725" lon="1.44008">
        <ele>224.089</ele>
        <time>2017-03-11T09:20:36.045Z</time>
      </trkpt>
      <trkpt lat="43.43718" lon="1.44015">
        <ele>224.277</ele>
        <time>2017-03-11T09:20:43.849Z</time>
      </trkpt>
      <trkpt lat="43.43708" lon="1.44019">
        <ele>224.422</ele>
        <time>2017-03-11T09:20:52.320Z</time>
      </trkpt>
      <trkpt lat="43.43699" lon="1.44021">
        <ele>224.49</ele>
        <time>2017-03-11T09:20:59.904Z</time>
      </trkpt>
      <trkpt lat="43.43689" lon="1.44022">
        <ele>224.502</ele>
        <time>2017-03-11T09:21:07.073Z</time>
      </trkpt>
      <trkpt lat="43.4368" lon="1.44023">
        <ele>224.496</ele>
        <time>2017-03-11T09:21:13.575Z</time>
      </trkpt>
      <trkpt lat="43.43671" lon="1.44026">
        <ele>224.483</ele>
        <time>2017-03-11T09:21:20.952Z</time>
      </trkpt>
      <trkpt lat="43.43661" lon="1.44031">
        <ele>224.422</ele>
        <time>2017-03-11T09:21:29.026Z</time>
      </trkpt>
      <trkpt lat="43.43652" lon="1.4403">
        <ele>224.191</ele>
        <time>2017-03-11T09:21:37.456Z</time>
      </trkpt>
      <trkpt lat="43.43643" lon="1.44033">
        <ele>223.622</ele>
        <time>2017-03-11T09:21:46.267Z</time>
      </trkpt>
      <trkpt lat="43.43633" lon="1.44034">
        <ele>222.667</ele>
        <time>2017-03-11T09:21:54.308Z</time>
      </trkpt>
      <trkpt lat="43.43624" lon="1.44039">
        <ele>221.554</ele>
        <time>2017-03-11T09:22:00.711Z</time>
      </trkpt>
      <trkpt lat="43.43614" lon="1.4404">
        <ele>220.59</ele>
        <time>2017-03-11T09:22:07.986Z</time>
      </trkpt>
      <trkpt lat="43.43604" lon="1.44043">
        <ele>219.785</ele>
        <time>2017-03-11T09:22:14.828Z</time>
      </trkpt>
      <trkpt lat="43.43595" lon="1.44046">
        <ele>219.011</ele>
        <time>2017-03-11T09:22:21.498Z</time>
      </trkpt>
      <trkpt lat="43.43586" lon="1.44051">
        <ele>218.334</ele>
        <time>2017-03-11T09:22:28.632Z</time>
      </trkpt>
      <trkpt lat="43.43577" lon="1.44057">
        <ele>217.794</ele>
        <time>2017-03-11T09:22:36.280Z</time>
      </trkpt>
      <trkpt lat="43.4357" lon="1.44064">
        <ele>217.269</ele>
        <time>2017-03-11T09:22:43.000Z</time>
      </trkpt>
      <trkpt lat="43.4357" lon="1.44064">
        <ele>216.779</ele>
        <time>2017-03-11T09:22:50.000Z</time>
      </trkpt>
      <trkpt lat="43.43567" lon="1.44067">
        <ele>216.664</ele>
        <time>2017-03-11T09:26:32.843Z</time>
      </trkpt>
      <trkpt lat="43.43567" lon="1.44067">
        <ele>216.801</ele>
        <time>2017-03-11T09:28:21.591Z</time>
      </trkpt>
      <trkpt lat="43.43562" lon="1.44063">
        <ele>216.532</ele>
        <time>2017-03-11T09:28:55.269Z</time>
      </trkpt>
      <trkpt lat="43.43552" lon="1.44059">
        <ele>215.91</ele>
        <time>2017-03-11T09:29:12.587Z</time>
      </trkpt>
      <trkpt lat="43.43543" lon="1.4406">
        <ele>214.117</ele>
        <time>2017-03-11T09:29:23.687Z</time>
      </trkpt>
      <trkpt lat="43.43533" lon="1.4406">
        <ele>211.396</ele>
        <time>2017-03-11T09:29:35.140Z</time>
      </trkpt>
      <trkpt lat="43.43524" lon="1.44062">
        <ele>208.711</ele>
        <time>2017-03-11T09:29:47.666Z</time>
      </trkpt>
      <trkpt lat="43.43516" lon="1.44057">
        <ele>206.356</ele>
        <time>2017-03-11T09:29:59.430Z</time>
      </trkpt>
      <trkpt lat="43.43506" lon="1.44057">
        <ele>204.103</ele>
        <time>2017-03-11T09:30:11.444Z</time>
      </trkpt>
      <trkpt lat="43.43497" lon="1.44057">
        <ele>201.768</ele>
        <time>2017-03-11T09:30:20.401Z</time>
      </trkpt>
      <trkpt lat="43.43488" lon="1.44053">
        <ele>199.374</ele>
        <time>2017-03-11T09:30:31.430Z</time>
      </trkpt>
      <trkpt lat="43.43477" lon="1.44053">
        <ele>197.274</ele>
        <time>2017-03-11T09:30:44.409Z</time>
      </trkpt>
      <trkpt lat="43.43477" lon="1.44067">
        <ele>195.753</ele>
        <time>2017-03-11T09:30:56.991Z</time>
      </trkpt>
      <trkpt lat="43.4347" lon="1.44074">
        <ele>193.909</ele>
        <time>2017-03-11T09:31:10.316Z</time>
      </trkpt>
      <trkpt lat="43.43461" lon="1.44071">
        <ele>190.518</ele>
        <time>2017-03-11T09:31:23.432Z</time>
      </trkpt>
      <trkpt lat="43.43458" lon="1.44084">
        <ele>186.306</ele>
        <time>2017-03-11T09:31:35.147Z</time>
      </trkpt>
      <trkpt lat="43.43465" lon="1.44093">
        <ele>182.856</ele>
        <time>2017-03-11T09:31:47.469Z</time>
      </trkpt>
      <trkpt lat="43.43457" lon="1.44099">
        <ele>180.26</ele>
        <time>2017-03-11T09:32:03.425Z</time>
      </trkpt>
      <trkpt lat="43.43448" lon="1.44095">
        <ele>177.552</ele>
        <time>2017-03-11T09:32:20.210Z</time>
      </trkpt>
      <trkpt lat="43.43438" lon="1.44091">
        <ele>174.082</ele>
        <time>2017-03-11T09:32:38.232Z</time>
      </trkpt>
      <trkpt lat="43.43438" lon="1.44078">
        <ele>170.163</ele>
        <time>2017-03-11T09:32:54.590Z</time>
      </trkpt>
      <trkpt lat="43.43438" lon="1.44066">
        <ele>166.957</ele>
        <time>2017-03-11T09:33:09.258Z</time>
      </trkpt>
      <trkpt lat="43.43437" lon="1.44053">
        <ele>165.335</ele>
        <time>2017-03-11T09:33:21.369Z</time>
      </trkpt>
      <trkpt lat="43.43442" lon="1.44042">
        <ele>165.183</ele>
        <time>2017-03-11T09:33:32.052Z</time>
      </trkpt>
      <trkpt lat="43.43445" lon="1.4403">
        <ele>165.778</ele>
        <time>2017-03-11T09:33:43.119Z</time>
      </trkpt>
      <trkpt lat="43.43449" lon="1.44019">
        <ele>166.506</ele>
        <time>2017-03-11T09:33:53.555Z</time>
      </trkpt>
      <trkpt lat="43.43457" lon="1.44009">
        <ele>167.008</ele>
        <time>2017-03-11T09:34:04.694Z</time>
      </trkpt>
      <trkpt lat="43.43465" lon="1.44001">
        <ele>167.086</ele>
        <time>2017-03-11T09:34:14.352Z</time>
      </trkpt>
      <trkpt lat="43.43472" lon="1.4399">
        <ele>166.688</ele>
        <time>2017-03-11T09:34:25.413Z</time>
      </trkpt>
      <trkpt lat="43.4348" lon="1.43984">
        <ele>165.859</ele>
        <time>2017-03-11T09:34:35.245Z</time>
      </trkpt>
      <trkpt lat="43.43481" lon="1.43971">
        <ele>164.723</ele>
        <time>2017-03-11T09:34:45.000Z</time>
      </trkpt>
      <trkpt lat="43.43481" lon="1.43971">
        <ele>163.615</ele>
        <time>2017-03-11T09:34:55.000Z</time>
      </trkpt>
      <trkpt lat="43.43481" lon="1.43971">
        <ele>163.011</ele>
        <time>2017-03-11T09:34:55.100Z</time>
      </trkpt>
      <trkpt lat="43.43481" lon="1.43971">
        <ele>163.22</ele>
        <time>2017-03-11T09:35:13.000Z</time>
      </trkpt>
      <trkpt lat="43.43481" lon="1.43971">
        <ele>163.34</ele>
        <time>2017-03-11T09:35:13.100Z</time>
      </trkpt>
      <trkpt lat="43.43481" lon="1.43971">
        <ele>163.119</ele>
        <time>2017-03-11T09:35:16.000Z</time>
      </trkpt>
      <trkpt lat="43.43481" lon="1.43971">
        <ele>163.032</ele>
        <time>2017-03-11T09:35:16.100Z</time>
      </trkpt>
      <trkpt lat="43.43472" lon="1.43975">
        <ele>162.963</ele>
        <time>2017-03-11T09:35:27.688Z</time>
      </trkpt>
      <trkpt lat="43.43466" lon="1.43986">
        <ele>162.561</ele>
        <time>2017-03-11T09:35:34.409Z</time>
      </trkpt>
      <trkpt lat="43.43456" lon="1.43986">
        <ele>161.563</ele>
        <time>2017-03-11T09:35:40.998Z</time>
      </trkpt>
      <trkpt lat="43.43447" lon="1.43993">
        <ele>160.543</ele>
        <time>2017-03-11T09:35:48.028Z</time>
      </trkpt>
      <trkpt lat="43.4344" lon="1.44001">
        <ele>160.056</ele>
        <time>2017-03-11T09:35:55.000Z</time>
      </trkpt>
      <trkpt lat="43.4344" lon="1.44001">
        <ele>159.977</ele>
        <time>2017-03-11T09:36:04.000Z</time>
      </trkpt>
      <trkpt lat="43.4344" lon="1.44001">
        <ele>160.012</ele>
        <time>2017-03-11T09:36:06.454Z</time>
      </trkpt>
      <trkpt lat="43.43433" lon="1.44011">
        <ele>159.987</ele>
        <time>2017-03-11T09:36:19.848Z</time>
      </trkpt>
      <trkpt lat="43.43429" lon="1.44023">
        <ele>160.023</ele>
        <time>2017-03-11T09:36:27.000Z</time>
      </trkpt>
      <trkpt lat="43.43429" lon="1.44023">
        <ele>160.251</ele>
        <time>2017-03-11T09:36:35.000Z</time>
      </trkpt>
      <trkpt lat="43.43429" lon="1.44023">
        <ele>160.439</ele>
        <time>2017-03-11T09:36:35.100Z</time>
      </trkpt>
      <trkpt lat="43.43415" lon="1.44027">
        <ele>160.371</ele>
        <time>2017-03-11T09:36:52.500Z</time>
      </trkpt>
      <trkpt lat="43.43406" lon="1.44027">
        <ele>160.323</ele>
        <time>2017-03-11T09:36:58.000Z</time>
      </trkpt>
      <trkpt lat="43.43406" lon="1.44027">
        <ele>160.553</ele>
        <time>2017-03-11T09:37:07.000Z</time>
      </trkpt>
      <trkpt lat="43.43406" lon="1.44027">
        <ele>160.781</ele>
        <time>2017-03-11T09:37:14.836Z</time>
      </trkpt>
      <trkpt lat="43.43394" lon="1.44026">
        <ele>160.718</ele>
        <time>2017-03-11T09:37:37.008Z</time>
      </trkpt>
      <trkpt lat="43.43385" lon="1.44024">
        <ele>160.543</ele>
        <time>2017-03-11T09:37:49.231Z</time>
      </trkpt>
      <trkpt lat="43.43376" lon="1.44024">
        <ele>160.501</ele>
        <time>2017-03-11T09:38:00.533Z</time>
      </trkpt>
      <trkpt lat="43.43368" lon="1.44017">
        <ele>160.82</ele>
        <time>2017-03-11T09:38:10.145Z</time>
      </trkpt>
      <trkpt lat="43.43359" lon="1.4402">
        <ele>161.65</ele>
        <time>2017-03-11T09:38:19.314Z</time>
      </trkpt>
      <trkpt lat="43.43349" lon="1.44024">
        <ele>162.767</ele>
        <time>2017-03-11T09:38:30.748Z</time>
      </trkpt>
      <trkpt lat="43.43347" lon="1.44011">
        <ele>163.819</ele>
        <time>2017-03-11T09:38:40.377Z</time>
      </trkpt>
      <trkpt lat="43.4335" lon="1.43998">
        <ele>164.591</ele>
        <time>2017-03-11T09:38:49.663Z</time>
      </trkpt>
      <trkpt lat="43.43351" lon="1.43986">
        <ele>164.867</ele>
        <time>2017-03-11T09:39:05.509Z</time>
      </trkpt>
      <trkpt lat="43.43348" lon="1.43973">
        <ele>164.646</ele>
        <time>2017-03-11T09:39:22.986Z</time>
      </trkpt>
      <trkpt lat="43.43351" lon="1.43961">
        <ele>164.2</ele>
        <time>2017-03-11T09:39:49.788Z</time>
      </trkpt>
      <trkpt lat="43.43347" lon="1.43948">
        <ele>163.616</ele>
        <time>2017-03-11T09:40:16.291Z</time>
      </trkpt>
      <trkpt lat="43.43348" lon="1.43934">
        <ele>162.897</ele>
        <time>2017-03-11T09:40:32.270Z</time>
      </trkpt>
      <trkpt lat="43.43342" lon="1.43925">
        <ele>162.329</ele>
        <time>2017-03-11T09:40:42.983Z</time>
      </trkpt>
      <trkpt lat="43.43335" lon="1.43914">
        <ele>162.111</ele>
        <time>2017-03-11T09:40:54.627Z</time>
      </trkpt>
      <trkpt lat="43.43327" lon="1.43907">
        <ele>162.118</ele>
        <time>2017-03-11T09:41:03.625Z</time>
      </trkpt>
      <trkpt lat="43.43318" lon="1.43901">
        <ele>162.217</ele>
        <time>2017-03-11T09:41:12.529Z</time>
      </trkpt>
      <trkpt lat="43.43311" lon="1.43892">
        <ele>162.427</ele>
        <time>2017-03-11T09:41:22.589Z</time>
      </trkpt>
      <trkpt lat="43.43304" lon="1.43883">
        <ele>162.777</ele>
        <time>2017-03-11T09:41:32.446Z</time>
      </trkpt>
      <trkpt lat="43.43296" lon="1.43876">
        <ele>163.142</ele>
        <time>2017-03-11T09:41:40.796Z</time>
      </trkpt>
      <trkpt lat="43.43287" lon="1.43871">
        <ele>163.384</ele>
        <time>2017-03-11T09:41:48.481Z</time>
      </trkpt>
      <trkpt lat="43.43279" lon="1.43863">
        <ele>163.535</ele>
        <time>2017-03-11T09:41:56.365Z</time>
      </trkpt>
      <trkpt lat="43.43271" lon="1.43856">
        <ele>163.692</ele>
        <time>2017-03-11T09:42:04.584Z</time>
      </trkpt>
      <trkpt lat="43.43262" lon="1.43851">
        <ele>163.909</ele>
        <time>2017-03-11T09:42:13.132Z</time>
      </trkpt>
      <trkpt lat="43.43254" lon="1.43843">
        <ele>164.155</ele>
        <time>2017-03-11T09:42:22.130Z</time>
      </trkpt>
      <trkpt lat="43.43247" lon="1.43836">
        <ele>164.369</ele>
        <time>2017-03-11T09:42:31.271Z</time>
      </trkpt>
      <trkpt lat="43.43243" lon="1.43824">
        <ele>164.574</ele>
        <time>2017-03-11T09:42:41.841Z</time>
      </trkpt>
      <trkpt lat="43.43248" lon="1.43812">
        <ele>164.907</ele>
        <time>2017-03-11T09:42:54.727Z</time>
      </trkpt>
      <trkpt lat="43.4325" lon="1.438">
        <ele>165.375</ele>
        <time>2017-03-11T09:43:06.091Z</time>
      </trkpt>
      <trkpt lat="43.43247" lon="1.43787">
        <ele>165.782</ele>
        <time>2017-03-11T09:43:15.176Z</time>
      </trkpt>
      <trkpt lat="43.43249" lon="1.43774">
        <ele>165.986</ele>
        <time>2017-03-11T09:43:24.062Z</time>
      </trkpt>
      <trkpt lat="43.43252" lon="1.43761">
        <ele>166.078</ele>
        <time>2017-03-11T09:43:31.523Z</time>
      </trkpt>
      <trkpt lat="43.43256" lon="1.4375">
        <ele>166.186</ele>
        <time>2017-03-11T09:43:39.098Z</time>
      </trkpt>
      <trkpt lat="43.4326" lon="1.43738">
        <ele>166.242</ele>
        <time>2017-03-11T09:43:47.079Z</time>
      </trkpt>
      <trkpt lat="43.43262" lon="1.43724">
        <ele>166.068</ele>
        <time>2017-03-11T09:43:55.323Z</time>
      </trkpt>
      <trkpt lat="43.43266" lon="1.43712">
        <ele>165.558</ele>
        <time>2017-03-11T09:44:03.183Z</time>
      </trkpt>
      <trkpt lat="43.43268" lon="1.43699">
        <ele>164.793</ele>
        <time>2017-03-11T09:44:11.497Z</time>
      </trkpt>
      <trkpt lat="43.43273" lon="1.43687">
        <ele>163.994</ele>
        <time>2017-03-11T09:44:20.208Z</time>
      </trkpt>
      <trkpt lat="43.43276" lon="1.43676">
        <ele>163.333</ele>
        <time>2017-03-11T09:44:29.300Z</time>
      </trkpt>
      <trkpt lat="43.43277" lon="1.43663">
        <ele>162.811</ele>
        <time>2017-03-11T09:44:39.907Z</time>
      </trkpt>
      <trkpt lat="43.4328" lon="1.4365">
        <ele>162.375</ele>
        <time>2017-03-11T09:44:50.326Z</time>
      </trkpt>
      <trkpt lat="43.43285" lon="1.43638">
        <ele>162.036</ele>
        <time>2017-03-11T09:44:59.713Z</time>
      </trkpt>
      <trkpt lat="43.43291" lon="1.43627">
        <ele>161.827</ele>
        <time>2017-03-11T09:45:09.727Z</time>
      </trkpt>
      <trkpt lat="43.43295" lon="1.43615">
        <ele>161.7</ele>
        <time>2017-03-11T09:45:20.005Z</time>
      </trkpt>
      <trkpt lat="43.43294" lon="1.436">
        <ele>161.529</ele>
        <time>2017-03-11T09:45:32.107Z</time>
      </trkpt>
      <trkpt lat="43.43287" lon="1.43591">
        <ele>161.214</ele>
        <time>2017-03-11T09:45:43.420Z</time>
      </trkpt>
      <trkpt lat="43.43281" lon="1.436">
        <ele>160.445</ele>
        <time>2017-03-11T09:45:55.266Z</time>
      </trkpt>
      <trkpt lat="43.4329" lon="1.43597">
        <ele>158.923</ele>
        <time>2017-03-11T09:46:07.720Z</time>
      </trkpt>
      <trkpt lat="43.43299" lon="1.43601">
        <ele>157.059</ele>
        <time>2017-03-11T09:46:18.134Z</time>
      </trkpt>
      <trkpt lat="43.43305" lon="1.43614">
        <ele>155.668</ele>
        <time>2017-03-11T09:46:28.999Z</time>
      </trkpt>
      <trkpt lat="43.43305" lon="1.43614">
        <ele>155.059</ele>
        <time>2017-03-11T09:46:31.999Z</time>
      </trkpt>
      <trkpt lat="43.43305" lon="1.43614">
        <ele>154.997</ele>
        <time>2017-03-11T09:46:44.263Z</time>
      </trkpt>
      <trkpt lat="43.43312" lon="1.43623">
        <ele>155.043</ele>
        <time>2017-03-11T09:46:55.999Z</time>
      </trkpt>
      <trkpt lat="43.43312" lon="1.43623">
        <ele>154.949</ele>
        <time>2017-03-11T09:46:59.999Z</time>
      </trkpt>
      <trkpt lat="43.43312" lon="1.43623">
        <ele>154.883</ele>
        <time>2017-03-11T09:47:00.099Z</time>
      </trkpt>
      <trkpt lat="43.43322" lon="1.43628">
        <ele>154.857</ele>
        <time>2017-03-11T09:47:12.573Z</time>
      </trkpt>
      <trkpt lat="43.43331" lon="1.43635">
        <ele>154.945</ele>
        <time>2017-03-11T09:47:20.972Z</time>
      </trkpt>
      <trkpt lat="43.43338" lon="1.43641">
        <ele>155.203</ele>
        <time>2017-03-11T09:47:31.192Z</time>
      </trkpt>
      <trkpt lat="43.43344" lon="1.43652">
        <ele>155.536</ele>
        <time>2017-03-11T09:47:43.367Z</time>
      </trkpt>
      <trkpt lat="43.43353" lon="1.43656">
        <ele>155.815</ele>
        <time>2017-03-11T09:47:51.537Z</time>
      </trkpt>
      <trkpt lat="43.43362" lon="1.43661">
        <ele>155.988</ele>
        <time>2017-03-11T09:47:58.486Z</time>
      </trkpt>
      <trkpt lat="43.43371" lon="1.43667">
        <ele>156.148</ele>
        <time>2017-03-11T09:48:06.720Z</time>
      </trkpt>
      <trkpt lat="43.4338" lon="1.43671">
        <ele>156.458</ele>
        <time>2017-03-11T09:48:15.687Z</time>
      </trkpt>
      <trkpt lat="43.43387" lon="1.4368">
        <ele>156.972</ele>
        <time>2017-03-11T09:48:25.147Z</time>
      </trkpt>
      <trkpt lat="43.43395" lon="1.43686">
        <ele>157.637</ele>
        <time>2017-03-11T09:48:32.220Z</time>
      </trkpt>
      <trkpt lat="43.43404" lon="1.43688">
        <ele>158.308</ele>
        <time>2017-03-11T09:48:38.607Z</time>
      </trkpt>
      <trkpt lat="43.43414" lon="1.43689">
        <ele>158.881</ele>
        <time>2017-03-11T09:48:45.650Z</time>
      </trkpt>
      <trkpt lat="43.43423" lon="1.43687">
        <ele>159.432</ele>
        <time>2017-03-11T09:48:52.883Z</time>
      </trkpt>
      <trkpt lat="43.43433" lon="1.43686">
        <ele>159.998</ele>
        <time>2017-03-11T09:49:00.839Z</time>
      </trkpt>
      <trkpt lat="43.43443" lon="1.43687">
        <ele>160.53</ele>
        <time>2017-03-11T09:49:08.761Z</time>
      </trkpt>
      <trkpt lat="43.43452" lon="1.43685">
        <ele>160.971</ele>
        <time>2017-03-11T09:49:15.334Z</time>
      </trkpt>
      <trkpt lat="43.43461" lon="1.43683">
        <ele>161.254</ele>
        <time>2017-03-11T09:49:23.025Z</time>
      </trkpt>
      <trkpt lat="43.4347" lon="1.43677">
        <ele>161.394</ele>
        <time>2017-03-11T09:49:31.701Z</time>
      </trkpt>
      <trkpt lat="43.43479" lon="1.43673">
        <ele>161.494</ele>
        <time>2017-03-11T09:49:39.409Z</time>
      </trkpt>
      <trkpt lat="43.43486" lon="1.43666">
        <ele>161.55</ele>
        <time>2017-03-11T09:49:47.450Z</time>
      </trkpt>
      <trkpt lat="43.43494" lon="1.43657">
        <ele>161.537</ele>
        <time>2017-03-11T09:49:55.467Z</time>
      </trkpt>
      <trkpt lat="43.435" lon="1.43648">
        <ele>161.474</ele>
        <time>2017-03-11T09:50:03.749Z</time>
      </trkpt>
      <trkpt lat="43.43507" lon="1.43638">
        <ele>161.393</ele>
        <time>2017-03-11T09:50:13.954Z</time>
      </trkpt>
      <trkpt lat="43.43511" lon="1.43627">
        <ele>161.35</ele>
        <time>2017-03-11T09:50:24.007Z</time>
      </trkpt>
      <trkpt lat="43.43519" lon="1.43618">
        <ele>161.406</ele>
        <time>2017-03-11T09:50:31.584Z</time>
      </trkpt>
      <trkpt lat="43.43526" lon="1.43609">
        <ele>161.534</ele>
        <time>2017-03-11T09:50:37.691Z</time>
      </trkpt>
      <trkpt lat="43.43534" lon="1.43601">
        <ele>161.665</ele>
        <time>2017-03-11T09:50:44.240Z</time>
      </trkpt>
      <trkpt lat="43.4354" lon="1.43591">
        <ele>161.762</ele>
        <time>2017-03-11T09:50:51.303Z</time>
      </trkpt>
      <trkpt lat="43.43543" lon="1.43579">
        <ele>161.814</ele>
        <time>2017-03-11T09:50:58.998Z</time>
      </trkpt>
      <trkpt lat="43.43551" lon="1.43571">
        <ele>161.822</ele>
        <time>2017-03-11T09:51:07.412Z</time>
      </trkpt>
      <trkpt lat="43.43555" lon="1.4356">
        <ele>161.809</ele>
        <time>2017-03-11T09:51:15.939Z</time>
      </trkpt>
      <trkpt lat="43.43559" lon="1.43548">
        <ele>161.737</ele>
        <time>2017-03-11T09:51:24.264Z</time>
      </trkpt>
      <trkpt lat="43.43568" lon="1.43543">
        <ele>161.583</ele>
        <time>2017-03-11T09:51:31.908Z</time>
      </trkpt>
      <trkpt lat="43.43575" lon="1.43533">
        <ele>161.436</ele>
        <time>2017-03-11T09:51:39.962Z</time>
      </trkpt>
      <trkpt lat="43.43582" lon="1.43524">
        <ele>161.393</ele>
        <time>2017-03-11T09:51:48.455Z</time>
      </trkpt>
      <trkpt lat="43.43589" lon="1.43512">
        <ele>161.438</ele>
        <time>2017-03-11T09:51:57.963Z</time>
      </trkpt>
      <trkpt lat="43.43596" lon="1.43505">
        <ele>161.501</ele>
        <time>2017-03-11T09:52:03.989Z</time>
      </trkpt>
      <trkpt lat="43.43605" lon="1.43499">
        <ele>161.534</ele>
        <time>2017-03-11T09:52:09.735Z</time>
      </trkpt>
      <trkpt lat="43.43612" lon="1.43489">
        <ele>161.552</ele>
        <time>2017-03-11T09:52:16.165Z</time>
      </trkpt>
      <trkpt lat="43.43618" lon="1.43479">
        <ele>161.596</ele>
        <time>2017-03-11T09:52:23.147Z</time>
      </trkpt>
      <trkpt lat="43.43625" lon="1.43468">
        <ele>161.674</ele>
        <time>2017-03-11T09:52:31.114Z</time>
      </trkpt>
      <trkpt lat="43.43632" lon="1.43461">
        <ele>161.744</ele>
        <time>2017-03-11T09:52:38.056Z</time>
      </trkpt>
      <trkpt lat="43.43639" lon="1.43452">
        <ele>161.791</ele>
        <time>2017-03-11T09:52:44.992Z</time>
      </trkpt>
      <trkpt lat="43.43646" lon="1.43441">
        <ele>161.831</ele>
        <time>2017-03-11T09:52:53.680Z</time>
      </trkpt>
      <trkpt lat="43.43652" lon="1.43432">
        <ele>161.906</ele>
        <time>2017-03-11T09:53:02.244Z</time>
      </trkpt>
      <trkpt lat="43.43649" lon="1.4342">
        <ele>162.045</ele>
        <time>2017-03-11T09:53:13.073Z</time>
      </trkpt>
      <trkpt lat="43.43645" lon="1.43407">
        <ele>162.245</ele>
        <time>2017-03-11T09:53:24.087Z</time>
      </trkpt>
      <trkpt lat="43.43641" lon="1.43394">
        <ele>162.469</ele>
        <time>2017-03-11T09:53:32.999Z</time>
      </trkpt>
      <trkpt lat="43.43641" lon="1.43394">
        <ele>162.612</ele>
        <time>2017-03-11T09:53:38.999Z</time>
      </trkpt>
      <trkpt lat="43.43641" lon="1.43394">
        <ele>162.606</ele>
        <time>2017-03-11T09:53:39.099Z</time>
      </trkpt>
      <trkpt lat="43.43634" lon="1.43381">
        <ele>162.515</ele>
        <time>2017-03-11T09:53:52.531Z</time>
      </trkpt>
      <trkpt lat="43.43631" lon="1.43369">
        <ele>162.434</ele>
        <time>2017-03-11T09:54:00.705Z</time>
      </trkpt>
      <trkpt lat="43.43628" lon="1.43356">
        <ele>162.409</ele>
        <time>2017-03-11T09:54:08.567Z</time>
      </trkpt>
      <trkpt lat="43.43625" lon="1.43344">
        <ele>162.438</ele>
        <time>2017-03-11T09:54:15.330Z</time>
      </trkpt>
      <trkpt lat="43.43621" lon="1.43331">
        <ele>162.488</ele>
        <time>2017-03-11T09:54:22.508Z</time>
      </trkpt>
      <trkpt lat="43.43616" lon="1.4332">
        <ele>162.496</ele>
        <time>2017-03-11T09:54:29.999Z</time>
      </trkpt>
      <trkpt lat="43.43616" lon="1.4332">
        <ele>162.433</ele>
        <time>2017-03-11T09:54:41.999Z</time>
      </trkpt>
      <trkpt lat="43.43616" lon="1.4332">
        <ele>162.352</ele>
        <time>2017-03-11T09:54:42.099Z</time>
      </trkpt>
      <trkpt lat="43.4361" lon="1.43309">
        <ele>162.306</ele>
        <time>2017-03-11T09:55:14.951Z</time>
      </trkpt>
      <trkpt lat="43.43606" lon="1.43297">
        <ele>162.352</ele>
        <time>2017-03-11T09:55:23.375Z</time>
      </trkpt>
      <trkpt lat="43.43602" lon="1.43286">
        <ele>162.515</ele>
        <time>2017-03-11T09:55:30.913Z</time>
      </trkpt>
      <trkpt lat="43.43598" lon="1.43274">
        <ele>162.752</ele>
        <time>2017-03-11T09:55:38.915Z</time>
      </trkpt>
      <trkpt lat="43.43596" lon="1.43261">
        <ele>162.992</ele>
        <time>2017-03-11T09:55:46.587Z</time>
      </trkpt>
      <trkpt lat="43.43592" lon="1.43249">
        <ele>163.151</ele>
        <time>2017-03-11T09:55:53.816Z</time>
      </trkpt>
      <trkpt lat="43.43591" lon="1.43237">
        <ele>163.191</ele>
        <time>2017-03-11T09:56:00.916Z</time>
      </trkpt>
      <trkpt lat="43.43594" lon="1.43222">
        <ele>163.171</ele>
        <time>2017-03-11T09:56:10.245Z</time>
      </trkpt>
      <trkpt lat="43.436" lon="1.43211">
        <ele>163.19</ele>
        <time>2017-03-11T09:56:18.559Z</time>
      </trkpt>
      <trkpt lat="43.43606" lon="1.43201">
        <ele>163.295</ele>
        <time>2017-03-11T09:56:27.216Z</time>
      </trkpt>
      <trkpt lat="43.43609" lon="1.43188">
        <ele>163.432</ele>
        <time>2017-03-11T09:56:35.994Z</time>
      </trkpt>
      <trkpt lat="43.43615" lon="1.43178">
        <ele>163.527</ele>
        <time>2017-03-11T09:56:44.273Z</time>
      </trkpt>
      <trkpt lat="43.4362" lon="1.43167">
        <ele>163.559</ele>
        <time>2017-03-11T09:56:52.127Z</time>
      </trkpt>
      <trkpt lat="43.43626" lon="1.43157">
        <ele>163.54</ele>
        <time>2017-03-11T09:57:01.449Z</time>
      </trkpt>
      <trkpt lat="43.4363" lon="1.43145">
        <ele>163.545</ele>
        <time>2017-03-11T09:57:11.437Z</time>
      </trkpt>
      <trkpt lat="43.43636" lon="1.43136">
        <ele>163.63</ele>
        <time>2017-03-11T09:57:20.248Z</time>
      </trkpt>
      <trkpt lat="43.43641" lon="1.43125">
        <ele>163.756</ele>
        <time>2017-03-11T09:57:28.787Z</time>
      </trkpt>
      <trkpt lat="43.43646" lon="1.43113">
        <ele>163.872</ele>
        <time>2017-03-11T09:57:37.581Z</time>
      </trkpt>
      <trkpt lat="43.43651" lon="1.43102">
        <ele>164.004</ele>
        <time>2017-03-11T09:57:46.490Z</time>
      </trkpt>
      <trkpt lat="43.43657" lon="1.43091">
        <ele>164.175</ele>
        <time>2017-03-11T09:57:55.729Z</time>
      </trkpt>
      <trkpt lat="43.43663" lon="1.4308">
        <ele>164.351</ele>
        <time>2017-03-11T09:58:05.347Z</time>
      </trkpt>
      <trkpt lat="43.43668" lon="1.43068">
        <ele>164.492</ele>
        <time>2017-03-11T09:58:15.361Z</time>
      </trkpt>
      <trkpt lat="43.43673" lon="1.43058">
        <ele>164.595</ele>
        <time>2017-03-11T09:58:23.770Z</time>
      </trkpt>
      <trkpt lat="43.43679" lon="1.43048">
        <ele>164.688</ele>
        <time>2017-03-11T09:58:31.351Z</time>
      </trkpt>
      <trkpt lat="43.43687" lon="1.4304">
        <ele>164.786</ele>
        <time>2017-03-11T09:58:38.925Z</time>
      </trkpt>
      <trkpt lat="43.4369" lon="1.43028">
        <ele>164.92</ele>
        <time>2017-03-11T09:58:46.355Z</time>
      </trkpt>
      <trkpt lat="43.43693" lon="1.43017">
        <ele>165.141</ele>
        <time>2017-03-11T09:58:53.567Z</time>
      </trkpt>
      <trkpt lat="43.437" lon="1.43007">
        <ele>165.4</ele>
        <time>2017-03-11T09:59:04.300Z</time>
      </trkpt>
      <trkpt lat="43.43709" lon="1.43003">
        <ele>165.61</ele>
        <time>2017-03-11T09:59:16.000Z</time>
      </trkpt>
      <trkpt lat="43.43709" lon="1.43003">
        <ele>165.762</ele>
        <time>2017-03-11T09:59:17.000Z</time>
      </trkpt>
      <trkpt lat="43.43709" lon="1.43003">
        <ele>165.813</ele>
        <time>2017-03-11T09:59:19.705Z</time>
      </trkpt>
      <trkpt lat="43.4372" lon="1.42998">
        <ele>165.627</ele>
        <time>2017-03-11T09:59:29.000Z</time>
      </trkpt>
      <trkpt lat="43.4372" lon="1.42998">
        <ele>165.566</ele>
        <time>2017-03-11T09:59:35.000Z</time>
      </trkpt>
      <trkpt lat="43.4372" lon="1.42998">
        <ele>165.532</ele>
        <time>2017-03-11T09:59:35.502Z</time>
      </trkpt>
      <trkpt lat="43.43731" lon="1.42996">
        <ele>165.49</ele>
        <time>2017-03-11T09:59:49.098Z</time>
      </trkpt>
      <trkpt lat="43.43742" lon="1.42995">
        <ele>165.748</ele>
        <time>2017-03-11T09:59:54.938Z</time>
      </trkpt>
      <trkpt lat="43.4375" lon="1.42989">
        <ele>166.514</ele>
        <time>2017-03-11T09:59:59.000Z</time>
      </trkpt>
      <trkpt lat="43.4375" lon="1.42989">
        <ele>167.327</ele>
        <time>2017-03-11T10:00:01.000Z</time>
      </trkpt>
      <trkpt lat="43.4375" lon="1.42989">
        <ele>167.657</ele>
        <time>2017-03-11T10:00:12.302Z</time>
      </trkpt>
      <trkpt lat="43.43755" lon="1.42979">
        <ele>167.293</ele>
        <time>2017-03-11T10:00:24.408Z</time>
      </trkpt>
      <trkpt lat="43.4376" lon="1.42968">
        <ele>167.138</ele>
        <time>2017-03-11T10:00:32.571Z</time>
      </trkpt>
      <trkpt lat="43.43767" lon="1.42958">
        <ele>167.056</ele>
        <time>2017-03-11T10:00:39.845Z</time>
      </trkpt>
      <trkpt lat="43.43776" lon="1.42955">
        <ele>166.838</ele>
        <time>2017-03-11T10:00:46.460Z</time>
      </trkpt>
      <trkpt lat="43.43785" lon="1.42956">
        <ele>166.331</ele>
        <time>2017-03-11T10:00:53.083Z</time>
      </trkpt>
      <trkpt lat="43.43795" lon="1.42955">
        <ele>165.693</ele>
        <time>2017-03-11T10:01:00.025Z</time>
      </trkpt>
      <trkpt lat="43.43804" lon="1.42957">
        <ele>165.146</ele>
        <time>2017-03-11T10:01:07.202Z</time>
      </trkpt>
      <trkpt lat="43.43814" lon="1.42955">
        <ele>164.732</ele>
        <time>2017-03-11T10:01:14.691Z</time>
      </trkpt>
      <trkpt lat="43.43823" lon="1.42955">
        <ele>164.435</ele>
        <time>2017-03-11T10:01:21.685Z</time>
      </trkpt>
      <trkpt lat="43.43833" lon="1.42955">
        <ele>164.135</ele>
        <time>2017-03-11T10:01:28.762Z</time>
      </trkpt>
      <trkpt lat="43.43843" lon="1.42956">
        <ele>163.646</ele>
        <time>2017-03-11T10:01:37.739Z</time>
      </trkpt>
      <trkpt lat="43.43852" lon="1.42956">
        <ele>163.048</ele>
        <time>2017-03-11T10:01:47.298Z</time>
      </trkpt>
      <trkpt lat="43.43862" lon="1.42957">
        <ele>162.606</ele>
        <time>2017-03-11T10:01:55.978Z</time>
      </trkpt>
      <trkpt lat="43.43872" lon="1.42956">
        <ele>162.4</ele>
        <time>2017-03-11T10:02:03.495Z</time>
      </trkpt>
      <trkpt lat="43.43881" lon="1.42955">
        <ele>162.268</ele>
        <time>2017-03-11T10:02:10.427Z</time>
      </trkpt>
      <trkpt lat="43.4389" lon="1.42949">
        <ele>162.077</ele>
        <time>2017-03-11T10:02:18.195Z</time>
      </trkpt>
      <trkpt lat="43.43899" lon="1.4295">
        <ele>161.86</ele>
        <time>2017-03-11T10:02:27.190Z</time>
      </trkpt>
      <trkpt lat="43.43908" lon="1.42951">
        <ele>161.69</ele>
        <time>2017-03-11T10:02:35.454Z</time>
      </trkpt>
      <trkpt lat="43.43918" lon="1.4295">
        <ele>161.58</ele>
        <time>2017-03-11T10:02:42.926Z</time>
      </trkpt>
      <trkpt lat="43.43927" lon="1.42946">
        <ele>161.535</ele>
        <time>2017-03-11T10:02:49.029Z</time>
      </trkpt>
      <trkpt lat="43.43937" lon="1.42942">
        <ele>161.544</ele>
        <time>2017-03-11T10:02:54.988Z</time>
      </trkpt>
      <trkpt lat="43.43946" lon="1.42938">
        <ele>161.593</ele>
        <time>2017-03-11T10:03:01.652Z</time>
      </trkpt>
      <trkpt lat="43.43954" lon="1.42931">
        <ele>161.7</ele>
        <time>2017-03-11T10:03:09.794Z</time>
      </trkpt>
      <trkpt lat="43.43963" lon="1.42924">
        <ele>161.936</ele>
        <time>2017-03-11T10:03:18.538Z</time>
      </trkpt>
      <trkpt lat="43.4397" lon="1.42916">
        <ele>162.3</ele>
        <time>2017-03-11T10:03:26.054Z</time>
      </trkpt>
      <trkpt lat="43.43977" lon="1.42908">
        <ele>162.656</ele>
        <time>2017-03-11T10:03:33.627Z</time>
      </trkpt>
      <trkpt lat="43.43984" lon="1.42899">
        <ele>162.933</ele>
        <time>2017-03-11T10:03:40.649Z</time>
      </trkpt>
      <trkpt lat="43.43992" lon="1.42893">
        <ele>163.161</ele>
        <time>2017-03-11T10:03:47.726Z</time>
      </trkpt>
      <trkpt lat="43.43999" lon="1.42886">
        <ele>163.306</ele>
        <time>2017-03-11T10:03:54.790Z</time>
      </trkpt>
      <trkpt lat="43.44008" lon="1.42881">
        <ele>163.341</ele>
        <time>2017-03-11T10:04:02.573Z</time>
      </trkpt>
      <trkpt lat="43.44014" lon="1.4287">
        <ele>163.295</ele>
        <time>2017-03-11T10:04:11.230Z</time>
      </trkpt>
      <trkpt lat="43.44022" lon="1.42863">
        <ele>163.197</ele>
        <time>2017-03-11T10:04:19.205Z</time>
      </trkpt>
      <trkpt lat="43.4403" lon="1.42856">
        <ele>163.077</ele>
        <time>2017-03-11T10:04:25.314Z</time>
      </trkpt>
      <trkpt lat="43.44038" lon="1.42849">
        <ele>162.96</ele>
        <time>2017-03-11T10:04:31.119Z</time>
      </trkpt>
      <trkpt lat="43.44047" lon="1.42843">
        <ele>162.858</ele>
        <time>2017-03-11T10:04:37.630Z</time>
      </trkpt>
      <trkpt lat="43.44054" lon="1.42836">
        <ele>162.771</ele>
        <time>2017-03-11T10:04:43.707Z</time>
      </trkpt>
      <trkpt lat="43.44062" lon="1.4283">
        <ele>162.704</ele>
        <time>2017-03-11T10:04:50.921Z</time>
      </trkpt>
      <trkpt lat="43.44069" lon="1.42822">
        <ele>162.679</ele>
        <time>2017-03-11T10:04:59.116Z</time>
      </trkpt>
      <trkpt lat="43.44079" lon="1.42819">
        <ele>162.706</ele>
        <time>2017-03-11T10:05:08.110Z</time>
      </trkpt>
      <trkpt lat="43.44088" lon="1.42817">
        <ele>162.781</ele>
        <time>2017-03-11T10:05:16.661Z</time>
      </trkpt>
      <trkpt lat="43.44097" lon="1.42812">
        <ele>162.882</ele>
        <time>2017-03-11T10:05:25.945Z</time>
      </trkpt>
      <trkpt lat="43.44107" lon="1.42811">
        <ele>162.944</ele>
        <time>2017-03-11T10:05:34.982Z</time>
      </trkpt>
      <trkpt lat="43.44116" lon="1.42814">
        <ele>162.934</ele>
        <time>2017-03-11T10:05:41.396Z</time>
      </trkpt>
      <trkpt lat="43.44126" lon="1.42816">
        <ele>162.902</ele>
        <time>2017-03-11T10:05:48.182Z</time>
      </trkpt>
      <trkpt lat="43.44135" lon="1.42818">
        <ele>162.895</ele>
        <time>2017-03-11T10:05:55.908Z</time>
      </trkpt>
      <trkpt lat="43.44145" lon="1.42822">
        <ele>162.899</ele>
        <time>2017-03-11T10:06:06.156Z</time>
      </trkpt>
      <trkpt lat="43.44154" lon="1.42821">
        <ele>162.858</ele>
        <time>2017-03-11T10:06:15.449Z</time>
      </trkpt>
      <trkpt lat="43.44163" lon="1.42821">
        <ele>162.762</ele>
        <time>2017-03-11T10:06:21.124Z</time>
      </trkpt>
      <trkpt lat="43.44174" lon="1.42821">
        <ele>162.686</ele>
        <time>2017-03-11T10:06:26.675Z</time>
      </trkpt>
      <trkpt lat="43.44183" lon="1.42818">
        <ele>162.679</ele>
        <time>2017-03-11T10:06:33.189Z</time>
      </trkpt>
      <trkpt lat="43.4419" lon="1.4281">
        <ele>162.706</ele>
        <time>2017-03-11T10:06:40.080Z</time>
      </trkpt>
      <trkpt lat="43.44198" lon="1.42803">
        <ele>162.692</ele>
        <time>2017-03-11T10:06:49.210Z</time>
      </trkpt>
      <trkpt lat="43.44206" lon="1.42795">
        <ele>162.61</ele>
        <time>2017-03-11T10:06:57.921Z</time>
      </trkpt>
      <trkpt lat="43.44212" lon="1.42785">
        <ele>162.518</ele>
        <time>2017-03-11T10:07:06.892Z</time>
      </trkpt>
      <trkpt lat="43.44218" lon="1.42773">
        <ele>162.471</ele>
        <time>2017-03-11T10:07:15.251Z</time>
      </trkpt>
      <trkpt lat="43.44226" lon="1.42765">
        <ele>162.426</ele>
        <time>2017-03-11T10:07:22.695Z</time>
      </trkpt>
      <trkpt lat="43.44234" lon="1.42757">
        <ele>162.289</ele>
        <time>2017-03-11T10:07:30.407Z</time>
      </trkpt>
      <trkpt lat="43.44237" lon="1.42745">
        <ele>162.023</ele>
        <time>2017-03-11T10:07:38.561Z</time>
      </trkpt>
      <trkpt lat="43.44241" lon="1.42732">
        <ele>161.631</ele>
        <time>2017-03-11T10:07:47.425Z</time>
      </trkpt>
      <trkpt lat="43.44247" lon="1.42722">
        <ele>161.19</ele>
        <time>2017-03-11T10:07:56.091Z</time>
      </trkpt>
      <trkpt lat="43.44253" lon="1.42711">
        <ele>160.848</ele>
        <time>2017-03-11T10:08:05.707Z</time>
      </trkpt>
      <trkpt lat="43.4426" lon="1.42702">
        <ele>160.667</ele>
        <time>2017-03-11T10:08:14.568Z</time>
      </trkpt>
      <trkpt lat="43.44267" lon="1.42691">
        <ele>160.586</ele>
        <time>2017-03-11T10:08:22.629Z</time>
      </trkpt>
      <trkpt lat="43.44275" lon="1.42682">
        <ele>160.541</ele>
        <time>2017-03-11T10:08:30.107Z</time>
      </trkpt>
      <trkpt lat="43.44282" lon="1.42673">
        <ele>160.506</ele>
        <time>2017-03-11T10:08:36.777Z</time>
      </trkpt>
      <trkpt lat="43.4429" lon="1.42666">
        <ele>160.511</ele>
        <time>2017-03-11T10:08:43.932Z</time>
      </trkpt>
      <trkpt lat="43.44295" lon="1.42656">
        <ele>160.571</ele>
        <time>2017-03-11T10:08:50.894Z</time>
      </trkpt>
      <trkpt lat="43.44302" lon="1.42647">
        <ele>160.693</ele>
        <time>2017-03-11T10:08:57.648Z</time>
      </trkpt>
      <trkpt lat="43.44307" lon="1.42636">
        <ele>160.858</ele>
        <time>2017-03-11T10:09:03.907Z</time>
      </trkpt>
      <trkpt lat="43.44311" lon="1.42624">
        <ele>161.027</ele>
        <time>2017-03-11T10:09:11.459Z</time>
      </trkpt>
      <trkpt lat="43.44317" lon="1.42614">
        <ele>161.198</ele>
        <time>2017-03-11T10:09:20.294Z</time>
      </trkpt>
      <trkpt lat="43.44323" lon="1.42604">
        <ele>161.378</ele>
        <time>2017-03-11T10:09:29.059Z</time>
      </trkpt>
      <trkpt lat="43.44329" lon="1.42594">
        <ele>161.504</ele>
        <time>2017-03-11T10:09:37.094Z</time>
      </trkpt>
      <trkpt lat="43.44335" lon="1.42585">
        <ele>161.55</ele>
        <time>2017-03-11T10:09:43.930Z</time>
      </trkpt>
      <trkpt lat="43.44341" lon="1.42575">
        <ele>161.546</ele>
        <time>2017-03-11T10:09:51.426Z</time>
      </trkpt>
      <trkpt lat="43.44348" lon="1.42565">
        <ele>161.515</ele>
        <time>2017-03-11T10:09:59.844Z</time>
      </trkpt>
      <trkpt lat="43.44353" lon="1.42555">
        <ele>161.458</ele>
        <time>2017-03-11T10:10:08.978Z</time>
      </trkpt>
      <trkpt lat="43.44359" lon="1.42545">
        <ele>161.387</ele>
        <time>2017-03-11T10:10:18.221Z</time>
      </trkpt>
      <trkpt lat="43.44366" lon="1.42537">
        <ele>161.333</ele>
        <time>2017-03-11T10:10:28.027Z</time>
      </trkpt>
      <trkpt lat="43.44372" lon="1.42527">
        <ele>161.263</ele>
        <time>2017-03-11T10:10:37.241Z</time>
      </trkpt>
      <trkpt lat="43.44377" lon="1.42516">
        <ele>161.132</ele>
        <time>2017-03-11T10:10:43.875Z</time>
      </trkpt>
      <trkpt lat="43.44382" lon="1.42506">
        <ele>160.985</ele>
        <time>2017-03-11T10:10:50.249Z</time>
      </trkpt>
      <trkpt lat="43.4439" lon="1.42498">
        <ele>160.914</ele>
        <time>2017-03-11T10:10:57.515Z</time>
      </trkpt>
      <trkpt lat="43.44399" lon="1.42491">
        <ele>160.998</ele>
        <time>2017-03-11T10:11:05.942Z</time>
      </trkpt>
      <trkpt lat="43.44408" lon="1.42494">
        <ele>161.26</ele>
        <time>2017-03-11T10:11:15.196Z</time>
      </trkpt>
      <trkpt lat="43.44416" lon="1.42503">
        <ele>161.6</ele>
        <time>2017-03-11T10:11:25.000Z</time>
      </trkpt>
      <trkpt lat="43.44416" lon="1.42503">
        <ele>161.876</ele>
        <time>2017-03-11T10:11:29.000Z</time>
      </trkpt>
      <trkpt lat="43.44416" lon="1.42503">
        <ele>161.974</ele>
        <time>2017-03-11T10:12:00.121Z</time>
      </trkpt>
      <trkpt lat="43.44427" lon="1.42504">
        <ele>161.761</ele>
        <time>2017-03-11T10:12:19.992Z</time>
      </trkpt>
      <trkpt lat="43.44435" lon="1.42495">
        <ele>161.83</ele>
        <time>2017-03-11T10:12:29.316Z</time>
      </trkpt>
      <trkpt lat="43.44444" lon="1.4249">
        <ele>162.188</ele>
        <time>2017-03-11T10:12:37.013Z</time>
      </trkpt>
      <trkpt lat="43.44453" lon="1.42491">
        <ele>162.542</ele>
        <time>2017-03-11T10:12:44.239Z</time>
      </trkpt>
      <trkpt lat="43.44463" lon="1.42489">
        <ele>162.615</ele>
        <time>2017-03-11T10:12:52.219Z</time>
      </trkpt>
      <trkpt lat="43.44471" lon="1.42485">
        <ele>162.419</ele>
        <time>2017-03-11T10:12:59.484Z</time>
      </trkpt>
      <trkpt lat="43.44481" lon="1.42484">
        <ele>162.082</ele>
        <time>2017-03-11T10:13:08.416Z</time>
      </trkpt>
      <trkpt lat="43.44491" lon="1.42481">
        <ele>161.787</ele>
        <time>2017-03-11T10:13:18.088Z</time>
      </trkpt>
      <trkpt lat="43.44498" lon="1.42473">
        <ele>161.648</ele>
        <time>2017-03-11T10:13:26.302Z</time>
      </trkpt>
      <trkpt lat="43.44505" lon="1.42466">
        <ele>161.628</ele>
        <time>2017-03-11T10:13:34.844Z</time>
      </trkpt>
      <trkpt lat="43.44516" lon="1.42464">
        <ele>161.683</ele>
        <time>2017-03-11T10:13:43.132Z</time>
      </trkpt>
      <trkpt lat="43.44526" lon="1.42463">
        <ele>161.79</ele>
        <time>2017-03-11T10:13:52.481Z</time>
      </trkpt>
      <trkpt lat="43.44534" lon="1.42471">
        <ele>161.888</ele>
        <time>2017-03-11T10:14:03.275Z</time>
      </trkpt>
      <trkpt lat="43.44539" lon="1.42482">
        <ele>161.911</ele>
        <time>2017-03-11T10:14:12.847Z</time>
      </trkpt>
      <trkpt lat="43.44542" lon="1.42494">
        <ele>161.845</ele>
        <time>2017-03-11T10:14:21.123Z</time>
      </trkpt>
      <trkpt lat="43.4454" lon="1.42508">
        <ele>161.741</ele>
        <time>2017-03-11T10:14:28.893Z</time>
      </trkpt>
      <trkpt lat="43.44539" lon="1.42521">
        <ele>161.684</ele>
        <time>2017-03-11T10:14:36.266Z</time>
      </trkpt>
      <trkpt lat="43.44545" lon="1.42532">
        <ele>161.712</ele>
        <time>2017-03-11T10:14:44.092Z</time>
      </trkpt>
      <trkpt lat="43.44549" lon="1.42545">
        <ele>161.738</ele>
        <time>2017-03-11T10:14:52.072Z</time>
      </trkpt>
      <trkpt lat="43.44549" lon="1.42558">
        <ele>161.664</ele>
        <time>2017-03-11T10:14:59.722Z</time>
      </trkpt>
      <trkpt lat="43.44554" lon="1.4257">
        <ele>161.516</ele>
        <time>2017-03-11T10:15:06.997Z</time>
      </trkpt>
      <trkpt lat="43.44558" lon="1.42582">
        <ele>161.391</ele>
        <time>2017-03-11T10:15:13.859Z</time>
      </trkpt>
      <trkpt lat="43.44565" lon="1.42592">
        <ele>161.296</ele>
        <time>2017-03-11T10:15:23.630Z</time>
      </trkpt>
      <trkpt lat="43.44574" lon="1.42592">
        <ele>161.169</ele>
        <time>2017-03-11T10:15:32.976Z</time>
      </trkpt>
      <trkpt lat="43.44583" lon="1.42589">
        <ele>161.012</ele>
        <time>2017-03-11T10:15:39.844Z</time>
      </trkpt>
      <trkpt lat="43.44592" lon="1.42585">
        <ele>160.867</ele>
        <time>2017-03-11T10:15:46.222Z</time>
      </trkpt>
      <trkpt lat="43.44601" lon="1.42581">
        <ele>160.728</ele>
        <time>2017-03-11T10:15:52.527Z</time>
      </trkpt>
      <trkpt lat="43.44611" lon="1.4258">
        <ele>160.533</ele>
        <time>2017-03-11T10:15:59.945Z</time>
      </trkpt>
      <trkpt lat="43.4462" lon="1.42583">
        <ele>160.28</ele>
        <time>2017-03-11T10:16:07.914Z</time>
      </trkpt>
      <trkpt lat="43.44629" lon="1.42587">
        <ele>160.064</ele>
        <time>2017-03-11T10:16:15.709Z</time>
      </trkpt>
      <trkpt lat="43.44638" lon="1.42586">
        <ele>159.922</ele>
        <time>2017-03-11T10:16:22.475Z</time>
      </trkpt>
      <trkpt lat="43.44648" lon="1.42584">
        <ele>159.788</ele>
        <time>2017-03-11T10:16:28.674Z</time>
      </trkpt>
      <trkpt lat="43.44658" lon="1.42583">
        <ele>159.643</ele>
        <time>2017-03-11T10:16:36.651Z</time>
      </trkpt>
      <trkpt lat="43.44667" lon="1.42582">
        <ele>159.519</ele>
        <time>2017-03-11T10:16:45.291Z</time>
      </trkpt>
      <trkpt lat="43.44676" lon="1.42586">
        <ele>159.503</ele>
        <time>2017-03-11T10:16:54.352Z</time>
      </trkpt>
      <trkpt lat="43.44685" lon="1.42588">
        <ele>159.625</ele>
        <time>2017-03-11T10:17:01.742Z</time>
      </trkpt>
      <trkpt lat="43.44695" lon="1.42587">
        <ele>159.742</ele>
        <time>2017-03-11T10:17:09.302Z</time>
      </trkpt>
      <trkpt lat="43.44704" lon="1.42584">
        <ele>159.735</ele>
        <time>2017-03-11T10:17:17.310Z</time>
      </trkpt>
      <trkpt lat="43.44714" lon="1.42583">
        <ele>159.665</ele>
        <time>2017-03-11T10:17:25.692Z</time>
      </trkpt>
      <trkpt lat="43.44724" lon="1.42581">
        <ele>159.616</ele>
        <time>2017-03-11T10:17:34.641Z</time>
      </trkpt>
      <trkpt lat="43.44731" lon="1.42571">
        <ele>159.604</ele>
        <time>2017-03-11T10:17:43.447Z</time>
      </trkpt>
      <trkpt lat="43.44739" lon="1.42567">
        <ele>159.614</ele>
        <time>2017-03-11T10:17:50.858Z</time>
      </trkpt>
      <trkpt lat="43.44749" lon="1.42564">
        <ele>159.647</ele>
        <time>2017-03-11T10:17:58.517Z</time>
      </trkpt>
      <trkpt lat="43.44758" lon="1.42558">
        <ele>159.706</ele>
        <time>2017-03-11T10:18:05.981Z</time>
      </trkpt>
      <trkpt lat="43.44767" lon="1.42554">
        <ele>159.77</ele>
        <time>2017-03-11T10:18:14.122Z</time>
      </trkpt>
      <trkpt lat="43.44776" lon="1.42552">
        <ele>159.81</ele>
        <time>2017-03-11T10:18:23.629Z</time>
      </trkpt>
      <trkpt lat="43.44786" lon="1.42552">
        <ele>159.793</ele>
        <time>2017-03-11T10:18:36.155Z</time>
      </trkpt>
      <trkpt lat="43.44795" lon="1.42552">
        <ele>159.704</ele>
        <time>2017-03-11T10:18:46.123Z</time>
      </trkpt>
      <trkpt lat="43.44805" lon="1.42552">
        <ele>159.589</ele>
        <time>2017-03-11T10:18:53.819Z</time>
      </trkpt>
      <trkpt lat="43.44815" lon="1.42552">
        <ele>159.509</ele>
        <time>2017-03-11T10:19:01.459Z</time>
      </trkpt>
      <trkpt lat="43.44824" lon="1.42548">
        <ele>159.489</ele>
        <time>2017-03-11T10:19:08.769Z</time>
      </trkpt>
      <trkpt lat="43.44834" lon="1.42548">
        <ele>159.49</ele>
        <time>2017-03-11T10:19:17.390Z</time>
      </trkpt>
      <trkpt lat="43.44843" lon="1.42552">
        <ele>159.395</ele>
        <time>2017-03-11T10:19:29.209Z</time>
      </trkpt>
      <trkpt lat="43.44851" lon="1.42555">
        <ele>159.127</ele>
        <time>2017-03-11T10:19:38.582Z</time>
      </trkpt>
      <trkpt lat="43.44862" lon="1.42551">
        <ele>158.79</ele>
        <time>2017-03-11T10:19:47.596Z</time>
      </trkpt>
      <trkpt lat="43.44871" lon="1.42552">
        <ele>158.554</ele>
        <time>2017-03-11T10:19:54.592Z</time>
      </trkpt>
      <trkpt lat="43.44881" lon="1.42554">
        <ele>158.456</ele>
        <time>2017-03-11T10:20:02.148Z</time>
      </trkpt>
      <trkpt lat="43.44891" lon="1.42555">
        <ele>158.442</ele>
        <time>2017-03-11T10:20:09.012Z</time>
      </trkpt>
      <trkpt lat="43.44901" lon="1.42557">
        <ele>158.465</ele>
        <time>2017-03-11T10:20:16.826Z</time>
      </trkpt>
      <trkpt lat="43.44911" lon="1.42558">
        <ele>158.499</ele>
        <time>2017-03-11T10:20:24.191Z</time>
      </trkpt>
      <trkpt lat="43.4492" lon="1.42557">
        <ele>158.494</ele>
        <time>2017-03-11T10:20:32.586Z</time>
      </trkpt>
      <trkpt lat="43.4493" lon="1.42556">
        <ele>158.423</ele>
        <time>2017-03-11T10:20:40.111Z</time>
      </trkpt>
      <trkpt lat="43.4494" lon="1.4256">
        <ele>158.349</ele>
        <time>2017-03-11T10:20:48.704Z</time>
      </trkpt>
      <trkpt lat="43.44949" lon="1.42564">
        <ele>158.341</ele>
        <time>2017-03-11T10:20:57.274Z</time>
      </trkpt>
      <trkpt lat="43.44959" lon="1.42564">
        <ele>158.407</ele>
        <time>2017-03-11T10:21:06.627Z</time>
      </trkpt>
      <trkpt lat="43.44968" lon="1.42568">
        <ele>158.519</ele>
        <time>2017-03-11T10:21:15.331Z</time>
      </trkpt>
      <trkpt lat="43.44977" lon="1.42567">
        <ele>158.621</ele>
        <time>2017-03-11T10:21:24.663Z</time>
      </trkpt>
      <trkpt lat="43.44987" lon="1.42565">
        <ele>158.656</ele>
        <time>2017-03-11T10:21:32.915Z</time>
      </trkpt>
      <trkpt lat="43.44997" lon="1.42575">
        <ele>158.575</ele>
        <time>2017-03-11T10:21:43.890Z</time>
      </trkpt>
      <trkpt lat="43.45006" lon="1.42579">
        <ele>158.367</ele>
        <time>2017-03-11T10:21:51.848Z</time>
      </trkpt>
      <trkpt lat="43.45015" lon="1.42583">
        <ele>158.123</ele>
        <time>2017-03-11T10:21:59.342Z</time>
      </trkpt>
      <trkpt lat="43.45022" lon="1.42591">
        <ele>158.029</ele>
        <time>2017-03-11T10:22:08.590Z</time>
      </trkpt>
      <trkpt lat="43.45031" lon="1.42597">
        <ele>158.148</ele>
        <time>2017-03-11T10:22:18.976Z</time>
      </trkpt>
      <trkpt lat="43.4504" lon="1.42602">
        <ele>158.294</ele>
        <time>2017-03-11T10:22:27.419Z</time>
      </trkpt>
      <trkpt lat="43.4505" lon="1.42609">
        <ele>158.305</ele>
        <time>2017-03-11T10:22:36.353Z</time>
      </trkpt>
      <trkpt lat="43.45059" lon="1.42614">
        <ele>158.295</ele>
        <time>2017-03-11T10:22:44.550Z</time>
      </trkpt>
      <trkpt lat="43.45068" lon="1.42616">
        <ele>158.395</ele>
        <time>2017-03-11T10:22:51.393Z</time>
      </trkpt>
      <trkpt lat="43.45078" lon="1.42618">
        <ele>158.509</ele>
        <time>2017-03-11T10:22:58.738Z</time>
      </trkpt>
      <trkpt lat="43.45087" lon="1.42622">
        <ele>158.525</ele>
        <time>2017-03-11T10:23:05.979Z</time>
      </trkpt>
      <trkpt lat="43.45093" lon="1.42631">
        <ele>158.505</ele>
        <time>2017-03-11T10:23:13.821Z</time>
      </trkpt>
      <trkpt lat="43.45102" lon="1.42639">
        <ele>158.527</ele>
        <time>2017-03-11T10:23:22.554Z</time>
      </trkpt>
      <trkpt lat="43.45109" lon="1.42646">
        <ele>158.54</ele>
        <time>2017-03-11T10:23:29.145Z</time>
      </trkpt>
      <trkpt lat="43.45119" lon="1.4265">
        <ele>158.485</ele>
        <time>2017-03-11T10:23:35.856Z</time>
      </trkpt>
      <trkpt lat="43.45125" lon="1.42659">
        <ele>158.434</ele>
        <time>2017-03-11T10:23:43.287Z</time>
      </trkpt>
      <trkpt lat="43.45133" lon="1.42666">
        <ele>158.479</ele>
        <time>2017-03-11T10:23:51.248Z</time>
      </trkpt>
      <trkpt lat="43.45141" lon="1.42673">
        <ele>158.603</ele>
        <time>2017-03-11T10:24:00.314Z</time>
      </trkpt>
      <trkpt lat="43.4515" lon="1.42678">
        <ele>158.764</ele>
        <time>2017-03-11T10:24:09.106Z</time>
      </trkpt>
      <trkpt lat="43.45159" lon="1.4269">
        <ele>158.936</ele>
        <time>2017-03-11T10:24:21.932Z</time>
      </trkpt>
      <trkpt lat="43.45166" lon="1.427">
        <ele>158.986</ele>
        <time>2017-03-11T10:24:33.577Z</time>
      </trkpt>
      <trkpt lat="43.45173" lon="1.42709">
        <ele>158.836</ele>
        <time>2017-03-11T10:24:42.009Z</time>
      </trkpt>
      <trkpt lat="43.45179" lon="1.42717">
        <ele>158.65</ele>
        <time>2017-03-11T10:24:48.122Z</time>
      </trkpt>
      <trkpt lat="43.45187" lon="1.42724">
        <ele>158.583</ele>
        <time>2017-03-11T10:24:53.532Z</time>
      </trkpt>
      <trkpt lat="43.45195" lon="1.42731">
        <ele>158.602</ele>
        <time>2017-03-11T10:24:59.144Z</time>
      </trkpt>
      <trkpt lat="43.45204" lon="1.42737">
        <ele>158.601</ele>
        <time>2017-03-11T10:25:06.175Z</time>
      </trkpt>
      <trkpt lat="43.45212" lon="1.42742">
        <ele>158.519</ele>
        <time>2017-03-11T10:25:14.320Z</time>
      </trkpt>
      <trkpt lat="43.45218" lon="1.42753">
        <ele>158.399</ele>
        <time>2017-03-11T10:25:24.402Z</time>
      </trkpt>
      <trkpt lat="43.45221" lon="1.42766">
        <ele>158.279</ele>
        <time>2017-03-11T10:25:35.544Z</time>
      </trkpt>
      <trkpt lat="43.45227" lon="1.42776">
        <ele>158.125</ele>
        <time>2017-03-11T10:25:45.137Z</time>
      </trkpt>
      <trkpt lat="43.45233" lon="1.42787">
        <ele>157.939</ele>
        <time>2017-03-11T10:25:53.999Z</time>
      </trkpt>
      <trkpt lat="43.45233" lon="1.42787">
        <ele>157.788</ele>
        <time>2017-03-11T10:26:00.999Z</time>
      </trkpt>
      <trkpt lat="43.45233" lon="1.42787">
        <ele>157.7</ele>
        <time>2017-03-11T10:26:01.099Z</time>
      </trkpt>
      <trkpt lat="43.45239" lon="1.42821">
        <ele>157.648</ele>
        <time>2017-03-11T10:26:45.000Z</time>
      </trkpt>
      <trkpt lat="43.45239" lon="1.42821">
        <ele>157.614</ele>
        <time>2017-03-11T10:26:49.000Z</time>
      </trkpt>
      <trkpt lat="43.45239" lon="1.42821">
        <ele>157.583</ele>
        <time>2017-03-11T10:26:49.100Z</time>
      </trkpt>
      <trkpt lat="43.45243" lon="1.42834">
        <ele>157.465</ele>
        <time>2017-03-11T10:27:12.909Z</time>
      </trkpt>
      <trkpt lat="43.45246" lon="1.42846">
        <ele>157.497</ele>
        <time>2017-03-11T10:27:19.964Z</time>
      </trkpt>
      <trkpt lat="43.45252" lon="1.42855">
        <ele>157.69</ele>
        <time>2017-03-11T10:27:25.292Z</time>
      </trkpt>
      <trkpt lat="43.45257" lon="1.42867">
        <ele>157.946</ele>
        <time>2017-03-11T10:27:30.000Z</time>
      </trkpt>
      <trkpt lat="43.45257" lon="1.42867">
        <ele>158.114</ele>
        <time>2017-03-11T10:27:34.000Z</time>
      </trkpt>
      <trkpt lat="43.45257" lon="1.42867">
        <ele>158.14</ele>
        <time>2017-03-11T10:27:51.062Z</time>
      </trkpt>
      <trkpt lat="43.45256" lon="1.42884">
        <ele>158.063</ele>
        <time>2017-03-11T10:28:12.847Z</time>
      </trkpt>
      <trkpt lat="43.45262" lon="1.42896">
        <ele>158.049</ele>
        <time>2017-03-11T10:28:24.685Z</time>
      </trkpt>
      <trkpt lat="43.45265" lon="1.42909">
        <ele>158.206</ele>
        <time>2017-03-11T10:28:32.155Z</time>
      </trkpt>
      <trkpt lat="43.45273" lon="1.42918">
        <ele>158.361</ele>
        <time>2017-03-11T10:28:39.856Z</time>
      </trkpt>
      <trkpt lat="43.45276" lon="1.42931">
        <ele>158.349</ele>
        <time>2017-03-11T10:28:47.052Z</time>
      </trkpt>
      <trkpt lat="43.4528" lon="1.42942">
        <ele>158.279</ele>
        <time>2017-03-11T10:28:55.697Z</time>
      </trkpt>
      <trkpt lat="43.4529" lon="1.42945">
        <ele>158.307</ele>
        <time>2017-03-11T10:29:08.458Z</time>
      </trkpt>
      <trkpt lat="43.45298" lon="1.42938">
        <ele>158.422</ele>
        <time>2017-03-11T10:29:19.828Z</time>
      </trkpt>
      <trkpt lat="43.45306" lon="1.42933">
        <ele>158.425</ele>
        <time>2017-03-11T10:29:26.352Z</time>
      </trkpt>
      <trkpt lat="43.45315" lon="1.42929">
        <ele>158.181</ele>
        <time>2017-03-11T10:29:32.207Z</time>
      </trkpt>
      <trkpt lat="43.45323" lon="1.42922">
        <ele>157.822</ele>
        <time>2017-03-11T10:29:39.011Z</time>
      </trkpt>
      <trkpt lat="43.45331" lon="1.42914">
        <ele>157.524</ele>
        <time>2017-03-11T10:29:46.209Z</time>
      </trkpt>
      <trkpt lat="43.4534" lon="1.42908">
        <ele>157.332</ele>
        <time>2017-03-11T10:29:52.779Z</time>
      </trkpt>
      <trkpt lat="43.45349" lon="1.429">
        <ele>157.237</ele>
        <time>2017-03-11T10:30:00.780Z</time>
      </trkpt>
      <trkpt lat="43.45357" lon="1.4289">
        <ele>157.205</ele>
        <time>2017-03-11T10:30:07.805Z</time>
      </trkpt>
      <trkpt lat="43.45364" lon="1.42883">
        <ele>157.177</ele>
        <time>2017-03-11T10:30:13.415Z</time>
      </trkpt>
      <trkpt lat="43.45373" lon="1.42875">
        <ele>157.123</ele>
        <time>2017-03-11T10:30:20.961Z</time>
      </trkpt>
      <trkpt lat="43.45382" lon="1.4287">
        <ele>157.095</ele>
        <time>2017-03-11T10:30:28.701Z</time>
      </trkpt>
      <trkpt lat="43.45389" lon="1.4286">
        <ele>157.145</ele>
        <time>2017-03-11T10:30:37.067Z</time>
      </trkpt>
      <trkpt lat="43.45394" lon="1.42848">
        <ele>157.238</ele>
        <time>2017-03-11T10:30:45.749Z</time>
      </trkpt>
      <trkpt lat="43.45401" lon="1.42839">
        <ele>157.319</ele>
        <time>2017-03-11T10:30:54.293Z</time>
      </trkpt>
      <trkpt lat="43.4541" lon="1.42836">
        <ele>157.374</ele>
        <time>2017-03-11T10:31:02.609Z</time>
      </trkpt>
      <trkpt lat="43.45419" lon="1.42833">
        <ele>157.411</ele>
        <time>2017-03-11T10:31:10.874Z</time>
      </trkpt>
      <trkpt lat="43.45425" lon="1.42823">
        <ele>157.433</ele>
        <time>2017-03-11T10:31:19.016Z</time>
      </trkpt>
      <trkpt lat="43.45436" lon="1.42817">
        <ele>157.462</ele>
        <time>2017-03-11T10:31:28.306Z</time>
      </trkpt>
      <trkpt lat="43.45442" lon="1.42806">
        <ele>157.549</ele>
        <time>2017-03-11T10:31:35.789Z</time>
      </trkpt>
      <trkpt lat="43.45448" lon="1.42795">
        <ele>157.678</ele>
        <time>2017-03-11T10:31:43.412Z</time>
      </trkpt>
      <trkpt lat="43.45456" lon="1.42787">
        <ele>157.742</ele>
        <time>2017-03-11T10:31:51.299Z</time>
      </trkpt>
      <trkpt lat="43.45461" lon="1.42775">
        <ele>157.678</ele>
        <time>2017-03-11T10:32:00.531Z</time>
      </trkpt>
      <trkpt lat="43.45463" lon="1.42762">
        <ele>157.552</ele>
        <time>2017-03-11T10:32:09.039Z</time>
      </trkpt>
      <trkpt lat="43.45466" lon="1.4275">
        <ele>157.459</ele>
        <time>2017-03-11T10:32:17.661Z</time>
      </trkpt>
      <trkpt lat="43.45472" lon="1.42738">
        <ele>157.424</ele>
        <time>2017-03-11T10:32:26.417Z</time>
      </trkpt>
      <trkpt lat="43.4548" lon="1.42732">
        <ele>157.391</ele>
        <time>2017-03-11T10:32:33.597Z</time>
      </trkpt>
      <trkpt lat="43.45487" lon="1.42723">
        <ele>157.298</ele>
        <time>2017-03-11T10:32:39.932Z</time>
      </trkpt>
      <trkpt lat="43.45492" lon="1.42711">
        <ele>157.161</ele>
        <time>2017-03-11T10:32:47.081Z</time>
      </trkpt>
      <trkpt lat="43.45495" lon="1.42699">
        <ele>157.036</ele>
        <time>2017-03-11T10:32:55.154Z</time>
      </trkpt>
      <trkpt lat="43.45501" lon="1.42688">
        <ele>156.942</ele>
        <time>2017-03-11T10:33:05.381Z</time>
      </trkpt>
      <trkpt lat="43.45505" lon="1.42676">
        <ele>156.888</ele>
        <time>2017-03-11T10:33:15.060Z</time>
      </trkpt>
      <trkpt lat="43.45514" lon="1.42669">
        <ele>156.912</ele>
        <time>2017-03-11T10:33:23.003Z</time>
      </trkpt>
      <trkpt lat="43.45522" lon="1.42663">
        <ele>157.019</ele>
        <time>2017-03-11T10:33:28.963Z</time>
      </trkpt>
      <trkpt lat="43.45531" lon="1.42659">
        <ele>157.149</ele>
        <time>2017-03-11T10:33:34.829Z</time>
      </trkpt>
      <trkpt lat="43.45539" lon="1.42651">
        <ele>157.258</ele>
        <time>2017-03-11T10:33:42.360Z</time>
      </trkpt>
      <trkpt lat="43.45544" lon="1.4264">
        <ele>157.384</ele>
        <time>2017-03-11T10:33:50.923Z</time>
      </trkpt>
      <trkpt lat="43.45546" lon="1.42628">
        <ele>157.585</ele>
        <time>2017-03-11T10:34:00.174Z</time>
      </trkpt>
      <trkpt lat="43.45555" lon="1.42622">
        <ele>157.855</ele>
        <time>2017-03-11T10:34:08.475Z</time>
      </trkpt>
      <trkpt lat="43.45561" lon="1.42612">
        <ele>158.109</ele>
        <time>2017-03-11T10:34:17.158Z</time>
      </trkpt>
      <trkpt lat="43.45569" lon="1.42603">
        <ele>158.245</ele>
        <time>2017-03-11T10:34:26.842Z</time>
      </trkpt>
      <trkpt lat="43.45575" lon="1.42592">
        <ele>158.226</ele>
        <time>2017-03-11T10:34:33.633Z</time>
      </trkpt>
      <trkpt lat="43.45582" lon="1.42583">
        <ele>158.115</ele>
        <time>2017-03-11T10:34:40.501Z</time>
      </trkpt>
      <trkpt lat="43.45586" lon="1.42571">
        <ele>158.009</ele>
        <time>2017-03-11T10:34:48.189Z</time>
      </trkpt>
      <trkpt lat="43.45593" lon="1.42562">
        <ele>157.92</ele>
        <time>2017-03-11T10:34:57.628Z</time>
      </trkpt>
      <trkpt lat="43.456" lon="1.42552">
        <ele>157.847</ele>
        <time>2017-03-11T10:35:09.732Z</time>
      </trkpt>
      <trkpt lat="43.45606" lon="1.42543">
        <ele>157.849</ele>
        <time>2017-03-11T10:35:21.075Z</time>
      </trkpt>
      <trkpt lat="43.45612" lon="1.42534">
        <ele>157.911</ele>
        <time>2017-03-11T10:35:29.763Z</time>
      </trkpt>
      <trkpt lat="43.4562" lon="1.42525">
        <ele>157.969</ele>
        <time>2017-03-11T10:35:36.753Z</time>
      </trkpt>
      <trkpt lat="43.45629" lon="1.42517">
        <ele>158.004</ele>
        <time>2017-03-11T10:35:43.062Z</time>
      </trkpt>
      <trkpt lat="43.45635" lon="1.42506">
        <ele>158.015</ele>
        <time>2017-03-11T10:35:49.345Z</time>
      </trkpt>
      <trkpt lat="43.45643" lon="1.42497">
        <ele>158.022</ele>
        <time>2017-03-11T10:35:55.481Z</time>
      </trkpt>
      <trkpt lat="43.4565" lon="1.42489">
        <ele>158.038</ele>
        <time>2017-03-11T10:36:01.066Z</time>
      </trkpt>
      <trkpt lat="43.45658" lon="1.42484">
        <ele>158.038</ele>
        <time>2017-03-11T10:36:07.000Z</time>
      </trkpt>
      <trkpt lat="43.45658" lon="1.42484">
        <ele>157.996</ele>
        <time>2017-03-11T10:36:10.000Z</time>
      </trkpt>
      <trkpt lat="43.45658" lon="1.42484">
        <ele>157.922</ele>
        <time>2017-03-11T10:36:24.502Z</time>
      </trkpt>
      <trkpt lat="43.45667" lon="1.42489">
        <ele>157.817</ele>
        <time>2017-03-11T10:36:41.225Z</time>
      </trkpt>
      <trkpt lat="43.45675" lon="1.42496">
        <ele>157.805</ele>
        <time>2017-03-11T10:36:51.250Z</time>
      </trkpt>
      <trkpt lat="43.45683" lon="1.42502">
        <ele>157.757</ele>
        <time>2017-03-11T10:37:01.130Z</time>
      </trkpt>
      <trkpt lat="43.45691" lon="1.42509">
        <ele>157.605</ele>
        <time>2017-03-11T10:37:09.360Z</time>
      </trkpt>
      <trkpt lat="43.45699" lon="1.42518">
        <ele>157.382</ele>
        <time>2017-03-11T10:37:17.219Z</time>
      </trkpt>
      <trkpt lat="43.45705" lon="1.42529">
        <ele>157.179</ele>
        <time>2017-03-11T10:37:25.195Z</time>
      </trkpt>
      <trkpt lat="43.45714" lon="1.42534">
        <ele>157.05</ele>
        <time>2017-03-11T10:37:32.970Z</time>
      </trkpt>
      <trkpt lat="43.45722" lon="1.42541">
        <ele>156.995</ele>
        <time>2017-03-11T10:37:40.341Z</time>
      </trkpt>
      <trkpt lat="43.45726" lon="1.42552">
        <ele>156.981</ele>
        <time>2017-03-11T10:37:47.064Z</time>
      </trkpt>
      <trkpt lat="43.45732" lon="1.42563">
        <ele>156.979</ele>
        <time>2017-03-11T10:37:54.538Z</time>
      </trkpt>
      <trkpt lat="43.45739" lon="1.42574">
        <ele>156.958</ele>
        <time>2017-03-11T10:38:02.752Z</time>
      </trkpt>
      <trkpt lat="43.45748" lon="1.42575">
        <ele>156.914</ele>
        <time>2017-03-11T10:38:11.763Z</time>
      </trkpt>
      <trkpt lat="43.45755" lon="1.42585">
        <ele>156.87</ele>
        <time>2017-03-11T10:38:19.987Z</time>
      </trkpt>
      <trkpt lat="43.45759" lon="1.42598">
        <ele>156.847</ele>
        <time>2017-03-11T10:38:28.957Z</time>
      </trkpt>
      <trkpt lat="43.45768" lon="1.42605">
        <ele>156.883</ele>
        <time>2017-03-11T10:38:40.261Z</time>
      </trkpt>
      <trkpt lat="43.45776" lon="1.426">
        <ele>156.988</ele>
        <time>2017-03-11T10:38:50.601Z</time>
      </trkpt>
      <trkpt lat="43.45782" lon="1.42589">
        <ele>156.938</ele>
        <time>2017-03-11T10:39:01.172Z</time>
      </trkpt>
      <trkpt lat="43.45786" lon="1.42577">
        <ele>156.587</ele>
        <time>2017-03-11T10:39:10.780Z</time>
      </trkpt>
      <trkpt lat="43.45791" lon="1.42566">
        <ele>156.162</ele>
        <time>2017-03-11T10:39:20.137Z</time>
      </trkpt>
      <trkpt lat="43.45795" lon="1.42553">
        <ele>155.889</ele>
        <time>2017-03-11T10:39:28.416Z</time>
      </trkpt>
      <trkpt lat="43.45802" lon="1.42544">
        <ele>155.745</ele>
        <time>2017-03-11T10:39:35.368Z</time>
      </trkpt>
      <trkpt lat="43.45809" lon="1.42536">
        <ele>155.683</ele>
        <time>2017-03-11T10:39:41.222Z</time>
      </trkpt>
      <trkpt lat="43.45815" lon="1.42526">
        <ele>155.657</ele>
        <time>2017-03-11T10:39:47.791Z</time>
      </trkpt>
      <trkpt lat="43.45816" lon="1.42513">
        <ele>155.644</ele>
        <time>2017-03-11T10:39:55.332Z</time>
      </trkpt>
      <trkpt lat="43.45821" lon="1.42502">
        <ele>155.638</ele>
        <time>2017-03-11T10:40:05.028Z</time>
      </trkpt>
      <trkpt lat="43.45825" lon="1.42491">
        <ele>155.644</ele>
        <time>2017-03-11T10:40:14.167Z</time>
      </trkpt>
      <trkpt lat="43.45828" lon="1.42478">
        <ele>155.664</ele>
        <time>2017-03-11T10:40:22.295Z</time>
      </trkpt>
      <trkpt lat="43.45831" lon="1.42465">
        <ele>155.684</ele>
        <time>2017-03-11T10:40:29.872Z</time>
      </trkpt>
      <trkpt lat="43.4583" lon="1.42453">
        <ele>155.673</ele>
        <time>2017-03-11T10:40:37.071Z</time>
      </trkpt>
      <trkpt lat="43.45832" lon="1.42439">
        <ele>155.636</ele>
        <time>2017-03-11T10:40:47.317Z</time>
      </trkpt>
      <trkpt lat="43.45835" lon="1.42427">
        <ele>155.592</ele>
        <time>2017-03-11T10:40:57.279Z</time>
      </trkpt>
      <trkpt lat="43.45843" lon="1.42417">
        <ele>155.557</ele>
        <time>2017-03-11T10:41:07.630Z</time>
      </trkpt>
      <trkpt lat="43.45853" lon="1.42412">
        <ele>155.555</ele>
        <time>2017-03-11T10:41:15.923Z</time>
      </trkpt>
      <trkpt lat="43.45852" lon="1.42399">
        <ele>155.584</ele>
        <time>2017-03-11T10:41:23.945Z</time>
      </trkpt>
      <trkpt lat="43.45851" lon="1.42385">
        <ele>155.614</ele>
        <time>2017-03-11T10:41:33.231Z</time>
      </trkpt>
      <trkpt lat="43.45852" lon="1.42372">
        <ele>155.593</ele>
        <time>2017-03-11T10:41:42.257Z</time>
      </trkpt>
      <trkpt lat="43.45856" lon="1.42356">
        <ele>155.478</ele>
        <time>2017-03-11T10:41:50.812Z</time>
      </trkpt>
      <trkpt lat="43.4586" lon="1.42345">
        <ele>155.325</ele>
        <time>2017-03-11T10:41:57.086Z</time>
      </trkpt>
      <trkpt lat="43.45864" lon="1.42331">
        <ele>155.2</ele>
        <time>2017-03-11T10:42:04.562Z</time>
      </trkpt>
      <trkpt lat="43.45863" lon="1.42318">
        <ele>155.083</ele>
        <time>2017-03-11T10:42:11.188Z</time>
      </trkpt>
      <trkpt lat="43.45869" lon="1.42307">
        <ele>154.969</ele>
        <time>2017-03-11T10:42:18.895Z</time>
      </trkpt>
      <trkpt lat="43.45874" lon="1.42297">
        <ele>154.913</ele>
        <time>2017-03-11T10:42:27.475Z</time>
      </trkpt>
      <trkpt lat="43.45877" lon="1.42283">
        <ele>154.978</ele>
        <time>2017-03-11T10:42:37.127Z</time>
      </trkpt>
      <trkpt lat="43.45876" lon="1.4227">
        <ele>155.137</ele>
        <time>2017-03-11T10:42:46.001Z</time>
      </trkpt>
      <trkpt lat="43.45879" lon="1.42257">
        <ele>155.277</ele>
        <time>2017-03-11T10:42:56.364Z</time>
      </trkpt>
      <trkpt lat="43.45884" lon="1.42246">
        <ele>155.304</ele>
        <time>2017-03-11T10:43:04.680Z</time>
      </trkpt>
      <trkpt lat="43.45886" lon="1.42233">
        <ele>155.231</ele>
        <time>2017-03-11T10:43:11.526Z</time>
      </trkpt>
      <trkpt lat="43.45885" lon="1.4222">
        <ele>155.161</ele>
        <time>2017-03-11T10:43:18.509Z</time>
      </trkpt>
      <trkpt lat="43.45887" lon="1.42207">
        <ele>155.209</ele>
        <time>2017-03-11T10:43:26.328Z</time>
      </trkpt>
      <trkpt lat="43.45887" lon="1.42193">
        <ele>155.367</ele>
        <time>2017-03-11T10:43:35.192Z</time>
      </trkpt>
      <trkpt lat="43.4589" lon="1.42182">
        <ele>155.418</ele>
        <time>2017-03-11T10:43:44.568Z</time>
      </trkpt>
      <trkpt lat="43.45891" lon="1.42168">
        <ele>155.232</ele>
        <time>2017-03-11T10:43:54.975Z</time>
      </trkpt>
      <trkpt lat="43.45894" lon="1.42156">
        <ele>155.019</ele>
        <time>2017-03-11T10:44:04.660Z</time>
      </trkpt>
      <trkpt lat="43.45899" lon="1.42144">
        <ele>154.986</ele>
        <time>2017-03-11T10:44:14.050Z</time>
      </trkpt>
      <trkpt lat="43.45901" lon="1.42131">
        <ele>155.06</ele>
        <time>2017-03-11T10:44:22.455Z</time>
      </trkpt>
      <trkpt lat="43.45904" lon="1.42119">
        <ele>155.122</ele>
        <time>2017-03-11T10:44:30.000Z</time>
      </trkpt>
      <trkpt lat="43.45904" lon="1.42119">
        <ele>155.14</ele>
        <time>2017-03-11T10:44:41.000Z</time>
      </trkpt>
      <trkpt lat="43.45904" lon="1.42119">
        <ele>155.106</ele>
        <time>2017-03-11T10:44:41.100Z</time>
      </trkpt>
      <trkpt lat="43.45894" lon="1.42111">
        <ele>155.036</ele>
        <time>2017-03-11T10:44:57.728Z</time>
      </trkpt>
      <trkpt lat="43.45884" lon="1.42112">
        <ele>155.056</ele>
        <time>2017-03-11T10:45:06.422Z</time>
      </trkpt>
      <trkpt lat="43.45875" lon="1.42111">
        <ele>155.3</ele>
        <time>2017-03-11T10:45:14.915Z</time>
      </trkpt>
      <trkpt lat="43.45865" lon="1.42106">
        <ele>155.726</ele>
        <time>2017-03-11T10:45:24.102Z</time>
      </trkpt>
      <trkpt lat="43.45856" lon="1.42106">
        <ele>156.193</ele>
        <time>2017-03-11T10:45:32.339Z</time>
      </trkpt>
      <trkpt lat="43.45846" lon="1.42103">
        <ele>156.641</ele>
        <time>2017-03-11T10:45:39.666Z</time>
      </trkpt>
      <trkpt lat="43.45836" lon="1.42101">
        <ele>157.045</ele>
        <time>2017-03-11T10:45:46.590Z</time>
      </trkpt>
      <trkpt lat="43.45827" lon="1.421">
        <ele>157.377</ele>
        <time>2017-03-11T10:45:53.670Z</time>
      </trkpt>
      <trkpt lat="43.45818" lon="1.42092">
        <ele>157.613</ele>
        <time>2017-03-11T10:46:01.691Z</time>
      </trkpt>
      <trkpt lat="43.45809" lon="1.42092">
        <ele>157.735</ele>
        <time>2017-03-11T10:46:10.188Z</time>
      </trkpt>
      <trkpt lat="43.458" lon="1.42092">
        <ele>157.766</ele>
        <time>2017-03-11T10:46:19.875Z</time>
      </trkpt>
      <trkpt lat="43.4579" lon="1.42092">
        <ele>157.795</ele>
        <time>2017-03-11T10:46:31.053Z</time>
      </trkpt>
      <trkpt lat="43.45781" lon="1.42089">
        <ele>157.883</ele>
        <time>2017-03-11T10:46:40.524Z</time>
      </trkpt>
      <trkpt lat="43.45771" lon="1.42088">
        <ele>158.032</ele>
        <time>2017-03-11T10:46:49.793Z</time>
      </trkpt>
      <trkpt lat="43.45762" lon="1.42088">
        <ele>158.207</ele>
        <time>2017-03-11T10:46:56.555Z</time>
      </trkpt>
      <trkpt lat="43.45753" lon="1.4209">
        <ele>158.34</ele>
        <time>2017-03-11T10:47:03.176Z</time>
      </trkpt>
      <trkpt lat="43.45743" lon="1.42095">
        <ele>158.422</ele>
        <time>2017-03-11T10:47:10.438Z</time>
      </trkpt>
      <trkpt lat="43.45733" lon="1.42097">
        <ele>158.56</ele>
        <time>2017-03-11T10:47:17.222Z</time>
      </trkpt>
      <trkpt lat="43.45723" lon="1.42097">
        <ele>158.77</ele>
        <time>2017-03-11T10:47:25.781Z</time>
      </trkpt>
      <trkpt lat="43.45713" lon="1.42096">
        <ele>158.949</ele>
        <time>2017-03-11T10:47:35.008Z</time>
      </trkpt>
      <trkpt lat="43.45701" lon="1.42098">
        <ele>159.082</ele>
        <time>2017-03-11T10:47:43.682Z</time>
      </trkpt>
      <trkpt lat="43.45691" lon="1.421">
        <ele>159.276</ele>
        <time>2017-03-11T10:47:51.824Z</time>
      </trkpt>
      <trkpt lat="43.45681" lon="1.421">
        <ele>159.539</ele>
        <time>2017-03-11T10:47:59.000Z</time>
      </trkpt>
      <trkpt lat="43.45681" lon="1.421">
        <ele>159.755</ele>
        <time>2017-03-11T10:48:04.000Z</time>
      </trkpt>
      <trkpt lat="43.45681" lon="1.421">
        <ele>159.818</ele>
        <time>2017-03-11T10:49:20.594Z</time>
      </trkpt>
      <trkpt lat="43.45683" lon="1.42086">
        <ele>159.627</ele>
        <time>2017-03-11T10:49:43.237Z</time>
      </trkpt>
      <trkpt lat="43.45688" lon="1.42076">
        <ele>159.699</ele>
        <time>2017-03-11T10:49:51.473Z</time>
      </trkpt>
      <trkpt lat="43.45691" lon="1.42063">
        <ele>160.047</ele>
        <time>2017-03-11T10:50:00.535Z</time>
      </trkpt>
      <trkpt lat="43.45697" lon="1.42052">
        <ele>160.461</ele>
        <time>2017-03-11T10:50:09.418Z</time>
      </trkpt>
      <trkpt lat="43.45695" lon="1.42039">
        <ele>160.748</ele>
        <time>2017-03-11T10:50:16.899Z</time>
      </trkpt>
      <trkpt lat="43.45697" lon="1.42026">
        <ele>160.936</ele>
        <time>2017-03-11T10:50:24.508Z</time>
      </trkpt>
      <trkpt lat="43.45704" lon="1.42017">
        <ele>161.051</ele>
        <time>2017-03-11T10:50:32.168Z</time>
      </trkpt>
      <trkpt lat="43.45709" lon="1.42006">
        <ele>161.094</ele>
        <time>2017-03-11T10:50:40.471Z</time>
      </trkpt>
      <trkpt lat="43.45708" lon="1.41992">
        <ele>161.098</ele>
        <time>2017-03-11T10:50:49.233Z</time>
      </trkpt>
      <trkpt lat="43.45716" lon="1.41986">
        <ele>161.08</ele>
        <time>2017-03-11T10:50:56.794Z</time>
      </trkpt>
      <trkpt lat="43.45718" lon="1.41973">
        <ele>161.039</ele>
        <time>2017-03-11T10:51:05.347Z</time>
      </trkpt>
      <trkpt lat="43.4572" lon="1.41959">
        <ele>160.902</ele>
        <time>2017-03-11T10:51:13.368Z</time>
      </trkpt>
      <trkpt lat="43.45722" lon="1.41947">
        <ele>160.584</ele>
        <time>2017-03-11T10:51:19.928Z</time>
      </trkpt>
      <trkpt lat="43.45727" lon="1.41937">
        <ele>160.158</ele>
        <time>2017-03-11T10:51:26.683Z</time>
      </trkpt>
      <trkpt lat="43.45728" lon="1.41923">
        <ele>159.823</ele>
        <time>2017-03-11T10:51:34.526Z</time>
      </trkpt>
      <trkpt lat="43.45732" lon="1.41911">
        <ele>159.711</ele>
        <time>2017-03-11T10:51:41.679Z</time>
      </trkpt>
      <trkpt lat="43.45736" lon="1.41899">
        <ele>159.803</ele>
        <time>2017-03-11T10:51:49.095Z</time>
      </trkpt>
      <trkpt lat="43.45737" lon="1.41886">
        <ele>159.95</ele>
        <time>2017-03-11T10:51:58.635Z</time>
      </trkpt>
      <trkpt lat="43.4574" lon="1.41874">
        <ele>160.057</ele>
        <time>2017-03-11T10:52:07.485Z</time>
      </trkpt>
      <trkpt lat="43.45745" lon="1.41864">
        <ele>160.137</ele>
        <time>2017-03-11T10:52:14.479Z</time>
      </trkpt>
      <trkpt lat="43.45752" lon="1.41853">
        <ele>160.207</ele>
        <time>2017-03-11T10:52:21.607Z</time>
      </trkpt>
      <trkpt lat="43.45753" lon="1.4184">
        <ele>160.311</ele>
        <time>2017-03-11T10:52:28.878Z</time>
      </trkpt>
      <trkpt lat="43.45751" lon="1.41827">
        <ele>160.48</ele>
        <time>2017-03-11T10:52:36.337Z</time>
      </trkpt>
      <trkpt lat="43.45754" lon="1.41814">
        <ele>160.634</ele>
        <time>2017-03-11T10:52:44.453Z</time>
      </trkpt>
      <trkpt lat="43.45757" lon="1.41801">
        <ele>160.674</ele>
        <time>2017-03-11T10:52:52.989Z</time>
      </trkpt>
      <trkpt lat="43.45759" lon="1.41789">
        <ele>160.608</ele>
        <time>2017-03-11T10:53:03.965Z</time>
      </trkpt>
      <trkpt lat="43.45762" lon="1.41777">
        <ele>160.52</ele>
        <time>2017-03-11T10:53:16.709Z</time>
      </trkpt>
      <trkpt lat="43.45765" lon="1.41765">
        <ele>160.47</ele>
        <time>2017-03-11T10:53:25.863Z</time>
      </trkpt>
      <trkpt lat="43.4577" lon="1.41753">
        <ele>160.488</ele>
        <time>2017-03-11T10:53:33.509Z</time>
      </trkpt>
      <trkpt lat="43.45776" lon="1.41744">
        <ele>160.575</ele>
        <time>2017-03-11T10:53:41.144Z</time>
      </trkpt>
      <trkpt lat="43.45782" lon="1.41734">
        <ele>160.74</ele>
        <time>2017-03-11T10:53:49.937Z</time>
      </trkpt>
      <trkpt lat="43.45788" lon="1.41724">
        <ele>161.004</ele>
        <time>2017-03-11T10:53:59.890Z</time>
      </trkpt>
      <trkpt lat="43.45796" lon="1.41715">
        <ele>161.298</ele>
        <time>2017-03-11T10:54:13.136Z</time>
      </trkpt>
      <trkpt lat="43.45806" lon="1.41713">
        <ele>161.52</ele>
        <time>2017-03-11T10:54:27.586Z</time>
      </trkpt>
      <trkpt lat="43.45811" lon="1.41724">
        <ele>161.644</ele>
        <time>2017-03-11T10:54:36.807Z</time>
      </trkpt>
      <trkpt lat="43.45819" lon="1.4173">
        <ele>161.68</ele>
        <time>2017-03-11T10:54:42.606Z</time>
      </trkpt>
      <trkpt lat="43.45827" lon="1.41739">
        <ele>161.659</ele>
        <time>2017-03-11T10:54:48.820Z</time>
      </trkpt>
      <trkpt lat="43.45835" lon="1.41747">
        <ele>161.634</ele>
        <time>2017-03-11T10:54:55.529Z</time>
      </trkpt>
      <trkpt lat="43.45842" lon="1.41756">
        <ele>161.645</ele>
        <time>2017-03-11T10:55:02.933Z</time>
      </trkpt>
      <trkpt lat="43.45848" lon="1.41765">
        <ele>161.702</ele>
        <time>2017-03-11T10:55:09.707Z</time>
      </trkpt>
      <trkpt lat="43.45856" lon="1.41774">
        <ele>161.779</ele>
        <time>2017-03-11T10:55:16.864Z</time>
      </trkpt>
      <trkpt lat="43.45866" lon="1.41779">
        <ele>161.92</ele>
        <time>2017-03-11T10:55:23.680Z</time>
      </trkpt>
      <trkpt lat="43.45874" lon="1.41787">
        <ele>162.164</ele>
        <time>2017-03-11T10:55:28.934Z</time>
      </trkpt>
      <trkpt lat="43.45882" lon="1.41795">
        <ele>162.398</ele>
        <time>2017-03-11T10:55:35.483Z</time>
      </trkpt>
      <trkpt lat="43.4589" lon="1.41803">
        <ele>162.519</ele>
        <time>2017-03-11T10:55:42.743Z</time>
      </trkpt>
      <trkpt lat="43.45898" lon="1.4181">
        <ele>162.543</ele>
        <time>2017-03-11T10:55:51.182Z</time>
      </trkpt>
      <trkpt lat="43.45906" lon="1.41814">
        <ele>162.522</ele>
        <time>2017-03-11T10:55:59.279Z</time>
      </trkpt>
      <trkpt lat="43.45915" lon="1.4182">
        <ele>162.506</ele>
        <time>2017-03-11T10:56:07.441Z</time>
      </trkpt>
      <trkpt lat="43.45923" lon="1.41827">
        <ele>162.514</ele>
        <time>2017-03-11T10:56:15.436Z</time>
      </trkpt>
      <trkpt lat="43.45931" lon="1.41834">
        <ele>162.61</ele>
        <time>2017-03-11T10:56:23.527Z</time>
      </trkpt>
      <trkpt lat="43.45939" lon="1.41843">
        <ele>162.835</ele>
        <time>2017-03-11T10:56:31.701Z</time>
      </trkpt>
      <trkpt lat="43.45947" lon="1.41851">
        <ele>163.09</ele>
        <time>2017-03-11T10:56:39.483Z</time>
      </trkpt>
      <trkpt lat="43.45954" lon="1.41861">
        <ele>163.318</ele>
        <time>2017-03-11T10:56:46.250Z</time>
      </trkpt>
      <trkpt lat="43.45962" lon="1.41869">
        <ele>163.57</ele>
        <time>2017-03-11T10:56:52.732Z</time>
      </trkpt>
      <trkpt lat="43.45968" lon="1.41878">
        <ele>163.839</ele>
        <time>2017-03-11T10:56:59.831Z</time>
      </trkpt>
      <trkpt lat="43.45975" lon="1.41888">
        <ele>164.117</ele>
        <time>2017-03-11T10:57:08.404Z</time>
      </trkpt>
      <trkpt lat="43.45981" lon="1.41897">
        <ele>164.403</ele>
        <time>2017-03-11T10:57:18.000Z</time>
      </trkpt>
      <trkpt lat="43.45987" lon="1.41908">
        <ele>164.634</ele>
        <time>2017-03-11T10:57:26.376Z</time>
      </trkpt>
      <trkpt lat="43.45994" lon="1.41918">
        <ele>164.816</ele>
        <time>2017-03-11T10:57:33.548Z</time>
      </trkpt>
      <trkpt lat="43.45999" lon="1.41928">
        <ele>165.048</ele>
        <time>2017-03-11T10:57:39.899Z</time>
      </trkpt>
      <trkpt lat="43.46005" lon="1.4194">
        <ele>165.329</ele>
        <time>2017-03-11T10:57:47.304Z</time>
      </trkpt>
      <trkpt lat="43.4601" lon="1.4195">
        <ele>165.582</ele>
        <time>2017-03-11T10:57:54.663Z</time>
      </trkpt>
      <trkpt lat="43.46017" lon="1.4196">
        <ele>165.785</ele>
        <time>2017-03-11T10:58:03.129Z</time>
      </trkpt>
      <trkpt lat="43.46021" lon="1.41972">
        <ele>165.957</ele>
        <time>2017-03-11T10:58:11.726Z</time>
      </trkpt>
      <trkpt lat="43.46024" lon="1.41984">
        <ele>166.11</ele>
        <time>2017-03-11T10:58:24.410Z</time>
      </trkpt>
      <trkpt lat="43.46028" lon="1.41996">
        <ele>166.25</ele>
        <time>2017-03-11T10:58:39.162Z</time>
      </trkpt>
      <trkpt lat="43.46035" lon="1.42005">
        <ele>166.354</ele>
        <time>2017-03-11T10:58:47.942Z</time>
      </trkpt>
      <trkpt lat="43.46037" lon="1.42017">
        <ele>166.382</ele>
        <time>2017-03-11T10:58:54.750Z</time>
      </trkpt>
      <trkpt lat="43.46041" lon="1.42029">
        <ele>166.313</ele>
        <time>2017-03-11T10:59:02.609Z</time>
      </trkpt>
      <trkpt lat="43.46049" lon="1.42037">
        <ele>166.205</ele>
        <time>2017-03-11T10:59:10.802Z</time>
      </trkpt>
      <trkpt lat="43.46055" lon="1.42046">
        <ele>166.201</ele>
        <time>2017-03-11T10:59:18.478Z</time>
      </trkpt>
      <trkpt lat="43.46062" lon="1.42055">
        <ele>166.383</ele>
        <time>2017-03-11T10:59:26.342Z</time>
      </trkpt>
      <trkpt lat="43.46066" lon="1.42066">
        <ele>166.629</ele>
        <time>2017-03-11T10:59:34.201Z</time>
      </trkpt>
      <trkpt lat="43.46071" lon="1.42078">
        <ele>166.764</ele>
        <time>2017-03-11T10:59:41.854Z</time>
      </trkpt>
      <trkpt lat="43.46072" lon="1.42092">
        <ele>166.673</ele>
        <time>2017-03-11T10:59:48.314Z</time>
      </trkpt>
      <trkpt lat="43.46073" lon="1.42105">
        <ele>166.367</ele>
        <time>2017-03-11T10:59:54.067Z</time>
      </trkpt>
      <trkpt lat="43.46074" lon="1.42118">
        <ele>166.108</ele>
        <time>2017-03-11T11:00:00.736Z</time>
      </trkpt>
      <trkpt lat="43.46074" lon="1.42131">
        <ele>166.185</ele>
        <time>2017-03-11T11:00:07.000Z</time>
      </trkpt>
      <trkpt lat="43.46074" lon="1.42131">
        <ele>166.531</ele>
        <time>2017-03-11T11:00:11.000Z</time>
      </trkpt>
      <trkpt lat="43.46074" lon="1.42131">
        <ele>166.772</ele>
        <time>2017-03-11T11:01:27.181Z</time>
      </trkpt>
      <trkpt lat="43.46074" lon="1.42131">
        <ele>166.484</ele>
        <time>2017-03-11T11:02:25.000Z</time>
      </trkpt>
      <trkpt lat="43.46074" lon="1.42131">
        <ele>166.347</ele>
        <time>2017-03-11T11:02:25.100Z</time>
      </trkpt>
      <trkpt lat="43.46063" lon="1.42132">
        <ele>166.297</ele>
        <time>2017-03-11T11:02:50.147Z</time>
      </trkpt>
      <trkpt lat="43.46056" lon="1.42121">
        <ele>164.957</ele>
        <time>2017-03-11T11:02:54.000Z</time>
      </trkpt>
      <trkpt lat="43.46056" lon="1.42121">
        <ele>161.491</ele>
        <time>2017-03-11T11:02:58.000Z</time>
      </trkpt>
      <trkpt lat="43.46056" lon="1.42121">
        <ele>158.578</ele>
        <time>2017-03-11T11:04:44.161Z</time>
      </trkpt>
      <trkpt lat="43.46046" lon="1.42111">
        <ele>158.561</ele>
        <time>2017-03-11T11:05:30.553Z</time>
      </trkpt>
      <trkpt lat="43.46038" lon="1.42116">
        <ele>159.374</ele>
        <time>2017-03-11T11:05:41.790Z</time>
      </trkpt>
      <trkpt lat="43.4603" lon="1.42121">
        <ele>158.779</ele>
        <time>2017-03-11T11:05:46.900Z</time>
      </trkpt>
      <trkpt lat="43.46021" lon="1.42127">
        <ele>157.418</ele>
        <time>2017-03-11T11:05:51.000Z</time>
      </trkpt>
      <trkpt lat="43.46021" lon="1.42127">
        <ele>156.537</ele>
        <time>2017-03-11T11:05:58.000Z</time>
      </trkpt>
      <trkpt lat="43.46021" lon="1.42127">
        <ele>156.257</ele>
        <time>2017-03-11T11:05:58.100Z</time>
      </trkpt>
      <trkpt lat="43.46008" lon="1.42132">
        <ele>156.281</ele>
        <time>2017-03-11T11:06:40.709Z</time>
      </trkpt>
      <trkpt lat="43.46003" lon="1.42144">
        <ele>156.345</ele>
        <time>2017-03-11T11:06:47.050Z</time>
      </trkpt>
      <trkpt lat="43.45997" lon="1.42155">
        <ele>156.372</ele>
        <time>2017-03-11T11:06:53.457Z</time>
      </trkpt>
      <trkpt lat="43.45991" lon="1.42165">
        <ele>156.415</ele>
        <time>2017-03-11T11:07:00.720Z</time>
      </trkpt>
      <trkpt lat="43.45984" lon="1.42176">
        <ele>156.537</ele>
        <time>2017-03-11T11:07:08.729Z</time>
      </trkpt>
      <trkpt lat="43.45979" lon="1.42186">
        <ele>156.703</ele>
        <time>2017-03-11T11:07:16.344Z</time>
      </trkpt>
      <trkpt lat="43.45975" lon="1.42198">
        <ele>156.819</ele>
        <time>2017-03-11T11:07:24.192Z</time>
      </trkpt>
      <trkpt lat="43.45971" lon="1.42209">
        <ele>156.889</ele>
        <time>2017-03-11T11:07:31.303Z</time>
      </trkpt>
      <trkpt lat="43.45967" lon="1.42222">
        <ele>156.961</ele>
        <time>2017-03-11T11:07:38.682Z</time>
      </trkpt>
      <trkpt lat="43.45963" lon="1.42235">
        <ele>157.024</ele>
        <time>2017-03-11T11:07:45.705Z</time>
      </trkpt>
      <trkpt lat="43.45962" lon="1.42248">
        <ele>157.029</ele>
        <time>2017-03-11T11:07:52.847Z</time>
      </trkpt>
      <trkpt lat="43.45958" lon="1.42259">
        <ele>156.976</ele>
        <time>2017-03-11T11:07:59.823Z</time>
      </trkpt>
      <trkpt lat="43.45957" lon="1.42273">
        <ele>156.912</ele>
        <time>2017-03-11T11:08:07.732Z</time>
      </trkpt>
      <trkpt lat="43.45955" lon="1.42287">
        <ele>156.913</ele>
        <time>2017-03-11T11:08:15.485Z</time>
      </trkpt>
      <trkpt lat="43.45953" lon="1.42299">
        <ele>157</ele>
        <time>2017-03-11T11:08:22.896Z</time>
      </trkpt>
      <trkpt lat="43.45953" lon="1.42312">
        <ele>157.113</ele>
        <time>2017-03-11T11:08:30.762Z</time>
      </trkpt>
      <trkpt lat="43.45951" lon="1.42325">
        <ele>157.191</ele>
        <time>2017-03-11T11:08:38.947Z</time>
      </trkpt>
      <trkpt lat="43.45948" lon="1.42338">
        <ele>157.238</ele>
        <time>2017-03-11T11:08:47.192Z</time>
      </trkpt>
      <trkpt lat="43.45943" lon="1.42349">
        <ele>157.258</ele>
        <time>2017-03-11T11:08:55.622Z</time>
      </trkpt>
      <trkpt lat="43.45937" lon="1.42359">
        <ele>157.251</ele>
        <time>2017-03-11T11:09:03.653Z</time>
      </trkpt>
      <trkpt lat="43.45939" lon="1.42373">
        <ele>157.232</ele>
        <time>2017-03-11T11:09:11.468Z</time>
      </trkpt>
      <trkpt lat="43.4594" lon="1.42385">
        <ele>157.271</ele>
        <time>2017-03-11T11:09:19.000Z</time>
      </trkpt>
      <trkpt lat="43.4594" lon="1.42385">
        <ele>157.397</ele>
        <time>2017-03-11T11:09:21.000Z</time>
      </trkpt>
      <trkpt lat="43.4594" lon="1.42385">
        <ele>157.478</ele>
        <time>2017-03-11T11:09:28.344Z</time>
      </trkpt>
      <trkpt lat="43.45937" lon="1.42398">
        <ele>157.288</ele>
        <time>2017-03-11T11:09:42.303Z</time>
      </trkpt>
      <trkpt lat="43.45928" lon="1.42405">
        <ele>157.215</ele>
        <time>2017-03-11T11:09:50.562Z</time>
      </trkpt>
      <trkpt lat="43.45929" lon="1.42418">
        <ele>157.175</ele>
        <time>2017-03-11T11:09:59.168Z</time>
      </trkpt>
      <trkpt lat="43.45929" lon="1.42431">
        <ele>157.141</ele>
        <time>2017-03-11T11:10:06.320Z</time>
      </trkpt>
      <trkpt lat="43.45924" lon="1.42442">
        <ele>157.127</ele>
        <time>2017-03-11T11:10:14.453Z</time>
      </trkpt>
      <trkpt lat="43.45925" lon="1.42455">
        <ele>157.143</ele>
        <time>2017-03-11T11:10:23.267Z</time>
      </trkpt>
      <trkpt lat="43.45925" lon="1.42467">
        <ele>157.17</ele>
        <time>2017-03-11T11:10:30.407Z</time>
      </trkpt>
      <trkpt lat="43.45926" lon="1.4248">
        <ele>157.192</ele>
        <time>2017-03-11T11:10:36.371Z</time>
      </trkpt>
      <trkpt lat="43.45925" lon="1.42492">
        <ele>157.186</ele>
        <time>2017-03-11T11:10:43.011Z</time>
      </trkpt>
      <trkpt lat="43.45923" lon="1.42505">
        <ele>157.176</ele>
        <time>2017-03-11T11:10:50.966Z</time>
      </trkpt>
      <trkpt lat="43.45922" lon="1.42517">
        <ele>157.206</ele>
        <time>2017-03-11T11:10:59.852Z</time>
      </trkpt>
      <trkpt lat="43.45918" lon="1.4253">
        <ele>157.259</ele>
        <time>2017-03-11T11:11:09.180Z</time>
      </trkpt>
      <trkpt lat="43.45913" lon="1.42541">
        <ele>157.233</ele>
        <time>2017-03-11T11:11:17.985Z</time>
      </trkpt>
      <trkpt lat="43.45906" lon="1.42551">
        <ele>157.077</ele>
        <time>2017-03-11T11:11:26.720Z</time>
      </trkpt>
      <trkpt lat="43.45898" lon="1.42556">
        <ele>156.861</ele>
        <time>2017-03-11T11:11:35.070Z</time>
      </trkpt>
      <trkpt lat="43.45888" lon="1.4256">
        <ele>156.617</ele>
        <time>2017-03-11T11:11:44.000Z</time>
      </trkpt>
      <trkpt lat="43.45888" lon="1.4256">
        <ele>156.335</ele>
        <time>2017-03-11T11:11:47.000Z</time>
      </trkpt>
      <trkpt lat="43.45878" lon="1.42571">
        <ele>156.518</ele>
        <time>1970-01-01T00:00:00.000Z</time>
      </trkpt>
      <trkpt lat="43.45876" lon="1.42584">
        <ele>156.519</ele>
        <time>2017-03-11T11:12:15.175Z</time>
      </trkpt>
      <trkpt lat="43.45873" lon="1.42596">
        <ele>156.498</ele>
        <time>2017-03-11T11:12:43.081Z</time>
      </trkpt>
      <trkpt lat="43.45867" lon="1.42607">
        <ele>156.384</ele>
        <time>2017-03-11T11:13:13.519Z</time>
      </trkpt>
      <trkpt lat="43.45863" lon="1.42619">
        <ele>156.406</ele>
        <time>2017-03-11T11:13:39.596Z</time>
      </trkpt>
      <trkpt lat="43.45858" lon="1.42631">
        <ele>156.763</ele>
        <time>2017-03-11T11:13:54.908Z</time>
      </trkpt>
      <trkpt lat="43.45855" lon="1.42643">
        <ele>157.228</ele>
        <time>2017-03-11T11:14:07.280Z</time>
      </trkpt>
      <trkpt lat="43.45853" lon="1.42656">
        <ele>157.489</ele>
        <time>2017-03-11T11:14:19.388Z</time>
      </trkpt>
      <trkpt lat="43.45849" lon="1.42667">
        <ele>157.496</ele>
        <time>2017-03-11T11:14:27.619Z</time>
      </trkpt>
      <trkpt lat="43.45844" lon="1.42682">
        <ele>157.361</ele>
        <time>2017-03-11T11:14:38.899Z</time>
      </trkpt>
      <trkpt lat="43.45839" lon="1.42694">
        <ele>157.229</ele>
        <time>2017-03-11T11:14:49.144Z</time>
      </trkpt>
      <trkpt lat="43.45836" lon="1.42707">
        <ele>157.161</ele>
        <time>2017-03-11T11:15:02.700Z</time>
      </trkpt>
      <trkpt lat="43.45837" lon="1.4272">
        <ele>157.142</ele>
        <time>2017-03-11T11:15:18.415Z</time>
      </trkpt>
      <trkpt lat="43.45835" lon="1.42733">
        <ele>157.155</ele>
        <time>2017-03-11T11:15:29.346Z</time>
      </trkpt>
      <trkpt lat="43.4583" lon="1.42744">
        <ele>157.181</ele>
        <time>2017-03-11T11:15:36.745Z</time>
      </trkpt>
      <trkpt lat="43.45829" lon="1.42757">
        <ele>157.188</ele>
        <time>2017-03-11T11:15:45.241Z</time>
      </trkpt>
      <trkpt lat="43.45827" lon="1.42771">
        <ele>157.169</ele>
        <time>2017-03-11T11:15:55.351Z</time>
      </trkpt>
      <trkpt lat="43.4582" lon="1.42781">
        <ele>157.151</ele>
        <time>2017-03-11T11:16:04.546Z</time>
      </trkpt>
      <trkpt lat="43.45811" lon="1.4279">
        <ele>157.157</ele>
        <time>2017-03-11T11:16:14.945Z</time>
      </trkpt>
      <trkpt lat="43.45804" lon="1.42799">
        <ele>157.166</ele>
        <time>2017-03-11T11:16:23.859Z</time>
      </trkpt>
      <trkpt lat="43.458" lon="1.42811">
        <ele>157.128</ele>
        <time>2017-03-11T11:16:29.830Z</time>
      </trkpt>
      <trkpt lat="43.45795" lon="1.42822">
        <ele>157.056</ele>
        <time>2017-03-11T11:16:36.904Z</time>
      </trkpt>
      <trkpt lat="43.45789" lon="1.42832">
        <ele>157.023</ele>
        <time>2017-03-11T11:16:46.257Z</time>
      </trkpt>
      <trkpt lat="43.45785" lon="1.42844">
        <ele>157.048</ele>
        <time>2017-03-11T11:16:58.641Z</time>
      </trkpt>
      <trkpt lat="43.45777" lon="1.42852">
        <ele>157.089</ele>
        <time>2017-03-11T11:17:11.047Z</time>
      </trkpt>
      <trkpt lat="43.45769" lon="1.42859">
        <ele>157.077</ele>
        <time>2017-03-11T11:17:22.888Z</time>
      </trkpt>
      <trkpt lat="43.45765" lon="1.42871">
        <ele>156.965</ele>
        <time>2017-03-11T11:17:35.097Z</time>
      </trkpt>
      <trkpt lat="43.45758" lon="1.42881">
        <ele>156.76</ele>
        <time>2017-03-11T11:17:44.800Z</time>
      </trkpt>
      <trkpt lat="43.45751" lon="1.4289">
        <ele>156.492</ele>
        <time>2017-03-11T11:17:51.212Z</time>
      </trkpt>
      <trkpt lat="43.45757" lon="1.429">
        <ele>156.244</ele>
        <time>2017-03-11T11:17:58.392Z</time>
      </trkpt>
      <trkpt lat="43.4576" lon="1.42913">
        <ele>156.29</ele>
        <time>2017-03-11T11:18:07.127Z</time>
      </trkpt>
      <trkpt lat="43.45753" lon="1.42922">
        <ele>156.841</ele>
        <time>2017-03-11T11:18:18.249Z</time>
      </trkpt>
      <trkpt lat="43.45746" lon="1.42932">
        <ele>157.632</ele>
        <time>2017-03-11T11:18:28.245Z</time>
      </trkpt>
      <trkpt lat="43.45744" lon="1.42944">
        <ele>158.22</ele>
        <time>2017-03-11T11:18:38.021Z</time>
      </trkpt>
      <trkpt lat="43.45743" lon="1.42958">
        <ele>158.5</ele>
        <time>2017-03-11T11:18:50.000Z</time>
      </trkpt>
      <trkpt lat="43.45743" lon="1.42958">
        <ele>158.579</ele>
        <time>2017-03-11T11:19:09.000Z</time>
      </trkpt>
      <trkpt lat="43.45743" lon="1.42958">
        <ele>158.547</ele>
        <time>2017-03-11T11:19:12.415Z</time>
      </trkpt>
      <trkpt lat="43.45747" lon="1.42972">
        <ele>158.411</ele>
        <time>2017-03-11T11:19:34.600Z</time>
      </trkpt>
      <trkpt lat="43.45745" lon="1.42988">
        <ele>158.398</ele>
        <time>2017-03-11T11:19:47.764Z</time>
      </trkpt>
      <trkpt lat="43.45743" lon="1.43001">
        <ele>158.561</ele>
        <time>2017-03-11T11:19:54.344Z</time>
      </trkpt>
      <trkpt lat="43.45738" lon="1.43012">
        <ele>159.108</ele>
        <time>2017-03-11T11:20:00.059Z</time>
      </trkpt>
      <trkpt lat="43.45734" lon="1.43024">
        <ele>159.912</ele>
        <time>2017-03-11T11:20:06.602Z</time>
      </trkpt>
      <trkpt lat="43.45736" lon="1.43037">
        <ele>160.491</ele>
        <time>2017-03-11T11:20:15.200Z</time>
      </trkpt>
      <trkpt lat="43.45736" lon="1.43049">
        <ele>160.584</ele>
        <time>2017-03-11T11:20:24.955Z</time>
      </trkpt>
      <trkpt lat="43.45736" lon="1.43062">
        <ele>160.326</ele>
        <time>2017-03-11T11:20:34.592Z</time>
      </trkpt>
      <trkpt lat="43.45732" lon="1.43073">
        <ele>159.914</ele>
        <time>2017-03-11T11:20:43.025Z</time>
      </trkpt>
      <trkpt lat="43.45724" lon="1.4308">
        <ele>159.23</ele>
        <time>2017-03-11T11:20:50.915Z</time>
      </trkpt>
      <trkpt lat="43.45718" lon="1.4309">
        <ele>158.126</ele>
        <time>2017-03-11T11:20:59.197Z</time>
      </trkpt>
      <trkpt lat="43.45712" lon="1.43101">
        <ele>156.993</ele>
        <time>2017-03-11T11:21:07.670Z</time>
      </trkpt>
      <trkpt lat="43.45705" lon="1.43108">
        <ele>156.343</ele>
        <time>2017-03-11T11:21:16.210Z</time>
      </trkpt>
      <trkpt lat="43.45697" lon="1.43115">
        <ele>156.173</ele>
        <time>2017-03-11T11:21:26.000Z</time>
      </trkpt>
      <trkpt lat="43.45697" lon="1.43115">
        <ele>156.174</ele>
        <time>2017-03-11T11:21:27.000Z</time>
      </trkpt>
      <trkpt lat="43.45697" lon="1.43115">
        <ele>156.128</ele>
        <time>2017-03-11T11:21:27.100Z</time>
      </trkpt>
      <trkpt lat="43.45695" lon="1.4313">
        <ele>155.994</ele>
        <time>2017-03-11T11:22:20.000Z</time>
      </trkpt>
      <trkpt lat="43.45695" lon="1.4313">
        <ele>155.98</ele>
        <time>2017-03-11T11:22:28.000Z</time>
      </trkpt>
      <trkpt lat="43.45695" lon="1.4313">
        <ele>155.959</ele>
        <time>2017-03-11T11:22:28.100Z</time>
      </trkpt>
      <trkpt lat="43.4569" lon="1.43149">
        <ele>155.901</ele>
        <time>2017-03-11T11:22:54.000Z</time>
      </trkpt>
      <trkpt lat="43.4569" lon="1.43149">
        <ele>155.836</ele>
        <time>2017-03-11T11:23:43.000Z</time>
      </trkpt>
      <trkpt lat="43.4569" lon="1.43149">
        <ele>155.79</ele>
        <time>2017-03-11T11:23:43.100Z</time>
      </trkpt>
      <trkpt lat="43.45688" lon="1.43161">
        <ele>155.751</ele>
        <time>2017-03-11T11:24:02.097Z</time>
      </trkpt>
      <trkpt lat="43.45685" lon="1.43173">
        <ele>157.729</ele>
        <time>2017-03-11T11:24:09.000Z</time>
      </trkpt>
      <trkpt lat="43.45685" lon="1.43173">
        <ele>162.943</ele>
        <time>2017-03-11T11:24:10.000Z</time>
      </trkpt>
      <trkpt lat="43.45685" lon="1.43173">
        <ele>167.273</ele>
        <time>2017-03-11T11:24:16.631Z</time>
      </trkpt>
      <trkpt lat="43.45685" lon="1.43173">
        <ele>164.759</ele>
        <time>2017-03-11T11:24:36.000Z</time>
      </trkpt>
      <trkpt lat="43.45685" lon="1.43173">
        <ele>163.266</ele>
        <time>2017-03-11T11:24:36.100Z</time>
      </trkpt>
      <trkpt lat="43.45681" lon="1.43188">
        <ele>163.612</ele>
        <time>2017-03-11T11:24:58.000Z</time>
      </trkpt>
      <trkpt lat="43.45681" lon="1.43188">
        <ele>164.828</ele>
        <time>2017-03-11T11:25:00.000Z</time>
      </trkpt>
      <trkpt lat="43.45681" lon="1.43188">
        <ele>165.374</ele>
        <time>2017-03-11T11:25:00.100Z</time>
      </trkpt>
      <trkpt lat="43.4569" lon="1.43191">
        <ele>165.128</ele>
        <time>2017-03-11T11:25:11.000Z</time>
      </trkpt>
      <trkpt lat="43.4569" lon="1.43191">
        <ele>164.838</ele>
        <time>2017-03-11T11:25:37.000Z</time>
      </trkpt>
      <trkpt lat="43.4569" lon="1.43191">
        <ele>164.767</ele>
        <time>2017-03-11T11:25:37.100Z</time>
      </trkpt>
      <trkpt lat="43.45699" lon="1.43211">
        <ele>164.838</ele>
        <time>2017-03-11T11:26:05.573Z</time>
      </trkpt>
      <trkpt lat="43.45705" lon="1.432">
        <ele>167.421</ele>
        <time>2017-03-11T11:26:19.667Z</time>
      </trkpt>
      <trkpt lat="43.45714" lon="1.43188">
        <ele>174.518</ele>
        <time>2017-03-11T11:26:47.000Z</time>
      </trkpt>
      <trkpt lat="43.45714" lon="1.43188">
        <ele>182.601</ele>
        <time>2017-03-11T11:26:52.000Z</time>
      </trkpt>
      <trkpt lat="43.45714" lon="1.43188">
        <ele>186.562</ele>
        <time>2017-03-11T11:26:52.100Z</time>
      </trkpt>
      <trkpt lat="43.45721" lon="1.43178">
        <ele>183.983</ele>
        <time>2017-03-11T11:27:06.999Z</time>
      </trkpt>
      <trkpt lat="43.45721" lon="1.43178">
        <ele>182.725</ele>
        <time>2017-03-11T11:27:16.000Z</time>
      </trkpt>
      <trkpt lat="43.45721" lon="1.43178">
        <ele>182.734</ele>
        <time>2017-03-11T11:27:16.100Z</time>
      </trkpt>
      <trkpt lat="43.45736" lon="1.4317">
        <ele>183.289</ele>
        <time>2017-03-11T11:30:55.472Z</time>
      </trkpt>
      <trkpt lat="43.45731" lon="1.43182">
        <ele>185.495</ele>
        <time>2017-03-11T11:31:07.156Z</time>
      </trkpt>
      <trkpt lat="43.45729" lon="1.43196">
        <ele>190.396</ele>
        <time>2017-03-11T11:31:21.405Z</time>
      </trkpt>
      <trkpt lat="43.45725" lon="1.43207">
        <ele>195.534</ele>
        <time>2017-03-11T11:31:36.810Z</time>
      </trkpt>
      <trkpt lat="43.45722" lon="1.43219">
        <ele>198.677</ele>
        <time>2017-03-11T11:31:52.732Z</time>
      </trkpt>
      <trkpt lat="43.45716" lon="1.4323">
        <ele>200.59</ele>
        <time>2017-03-11T11:32:08.865Z</time>
      </trkpt>
      <trkpt lat="43.45708" lon="1.43237">
        <ele>202.44</ele>
        <time>2017-03-11T11:32:24.580Z</time>
      </trkpt>
      <trkpt lat="43.45698" lon="1.43236">
        <ele>204.618</ele>
        <time>2017-03-11T11:32:37.000Z</time>
      </trkpt>
      <trkpt lat="43.45698" lon="1.43236">
        <ele>206.488</ele>
        <time>2017-03-11T11:32:49.000Z</time>
      </trkpt>
      <trkpt lat="43.45698" lon="1.43236">
        <ele>207.273</ele>
        <time>2017-03-11T11:32:49.100Z</time>
      </trkpt>
      <trkpt lat="43.45696" lon="1.43252">
        <ele>206.826</ele>
        <time>2017-03-11T11:38:31.672Z</time>
      </trkpt>
      <trkpt lat="43.45686" lon="1.4325">
        <ele>205.321</ele>
        <time>2017-03-11T11:38:43.083Z</time>
      </trkpt>
      <trkpt lat="43.45678" lon="1.43255">
        <ele>203.261</ele>
        <time>2017-03-11T11:38:57.947Z</time>
      </trkpt>
      <trkpt lat="43.45669" lon="1.43262">
        <ele>201.22</ele>
        <time>2017-03-11T11:39:13.554Z</time>
      </trkpt>
      <trkpt lat="43.4566" lon="1.43265">
        <ele>198.786</ele>
        <time>2017-03-11T11:39:22.692Z</time>
      </trkpt>
      <trkpt lat="43.4565" lon="1.43268">
        <ele>195.625</ele>
        <time>2017-03-11T11:39:32.070Z</time>
      </trkpt>
      <trkpt lat="43.45641" lon="1.43273">
        <ele>192.547</ele>
        <time>2017-03-11T11:39:42.074Z</time>
      </trkpt>
      <trkpt lat="43.45632" lon="1.43276">
        <ele>190.136</ele>
        <time>2017-03-11T11:39:52.947Z</time>
      </trkpt>
      <trkpt lat="43.45623" lon="1.43282">
        <ele>188.058</ele>
        <time>2017-03-11T11:40:05.468Z</time>
      </trkpt>
      <trkpt lat="43.45614" lon="1.43283">
        <ele>186.02</ele>
        <time>2017-03-11T11:40:18.013Z</time>
      </trkpt>
      <trkpt lat="43.45607" lon="1.43292">
        <ele>183.797</ele>
        <time>2017-03-11T11:40:29.614Z</time>
      </trkpt>
      <trkpt lat="43.456" lon="1.433">
        <ele>181.418</ele>
        <time>2017-03-11T11:40:41.649Z</time>
      </trkpt>
      <trkpt lat="43.4559" lon="1.43299">
        <ele>179.037</ele>
        <time>2017-03-11T11:40:54.003Z</time>
      </trkpt>
      <trkpt lat="43.45581" lon="1.43301">
        <ele>176.681</ele>
        <time>2017-03-11T11:41:05.007Z</time>
      </trkpt>
      <trkpt lat="43.45572" lon="1.43307">
        <ele>174.285</ele>
        <time>2017-03-11T11:41:16.945Z</time>
      </trkpt>
      <trkpt lat="43.45564" lon="1.43314">
        <ele>171.942</ele>
        <time>2017-03-11T11:41:28.655Z</time>
      </trkpt>
      <trkpt lat="43.45556" lon="1.43321">
        <ele>169.825</ele>
        <time>2017-03-11T11:41:38.959Z</time>
      </trkpt>
      <trkpt lat="43.45549" lon="1.43329">
        <ele>168.07</ele>
        <time>2017-03-11T11:41:48.304Z</time>
      </trkpt>
      <trkpt lat="43.45543" lon="1.43341">
        <ele>166.692</ele>
        <time>2017-03-11T11:41:57.708Z</time>
      </trkpt>
      <trkpt lat="43.45542" lon="1.43355">
        <ele>165.605</ele>
        <time>2017-03-11T11:42:07.149Z</time>
      </trkpt>
      <trkpt lat="43.45546" lon="1.43366">
        <ele>164.731</ele>
        <time>2017-03-11T11:42:15.523Z</time>
      </trkpt>
      <trkpt lat="43.45547" lon="1.43379">
        <ele>164.136</ele>
        <time>2017-03-11T11:42:23.034Z</time>
      </trkpt>
      <trkpt lat="43.45553" lon="1.43389">
        <ele>163.905</ele>
        <time>2017-03-11T11:42:30.862Z</time>
      </trkpt>
      <trkpt lat="43.45558" lon="1.43401">
        <ele>163.977</ele>
        <time>2017-03-11T11:42:39.234Z</time>
      </trkpt>
      <trkpt lat="43.45562" lon="1.43413">
        <ele>164.21</ele>
        <time>2017-03-11T11:42:49.000Z</time>
      </trkpt>
      <trkpt lat="43.45562" lon="1.43413">
        <ele>164.441</ele>
        <time>2017-03-11T11:42:51.000Z</time>
      </trkpt>
      <trkpt lat="43.45562" lon="1.43413">
        <ele>164.526</ele>
        <time>2017-03-11T11:42:58.734Z</time>
      </trkpt>
      <trkpt lat="43.45562" lon="1.43433">
        <ele>164.446</ele>
        <time>2017-03-11T11:43:16.665Z</time>
      </trkpt>
      <trkpt lat="43.45567" lon="1.43443">
        <ele>164.414</ele>
        <time>2017-03-11T11:43:23.999Z</time>
      </trkpt>
      <trkpt lat="43.45567" lon="1.43443">
        <ele>164.585</ele>
        <time>2017-03-11T11:43:26.999Z</time>
      </trkpt>
    </trkseg>
  </trk>
</gpx>